Darstellungsparameter: Aktuell verwendete Einstellungen:
Skalierung der Graphiken ... ?
xyx+y,   Skalierungsfaktor:      Skalierung: Modus: x, Faktor: 1
Darstellungszeitraum ... ?
Vom - - bis: - -   Zeitraum: 29.05.2014 - 04.06.2014
Min/Max/Avg-Anzeige ... ?
Zeige MMA aktuell
Zeige MMA Monat
Zeige MMA alles
Zeige --A aktuell
Zeige --A Monat
Zeige --A alles
Keine MMA-Anzeige
MMA:
Keine MMA-Graphiken
MMA-Basis: 29.05.2014 - 04.06.2014
Quicknavigation für Darstellung... ?
Tage:      1T, 2T, 3T, 5T -1T -2T -3T -5T +1T +2T +3T +5T
Wochen: 1W, 2W, 3W -1W -2W -3W +1W +2W +3W
Monate: 1M, 3M, 6M -1M -3M -6M +1M +3M +6M
Jahre:    1J, 3J, 5J, 10J -1J -3J -5J -10J +1J +3J +5J +10J
Nutze für die Darstellung ... ?
Originaldaten oder Mittelwerte auf ...
Stundenbasis Tagesbasis Wochenbasis
Monatsbasis Jahresbasis      Datenbasis: Original-Daten
Darstellen als:
Statistik (Auto) Statistik J:M      Darstellung:
Zur Graphik,    zurück zur Übersicht aller Sensoren.
 
Tabellarische Datenbersicht: ?
 
Sensor: Nr:Datum:Temp:Feuchte:
Aussen-T/F 1 29-05-2014 00:03:17 11.2 C 82 %
2 29-05-2014 00:15:17 11.1 C 83 %
3 29-05-2014 00:27:18 10.7 C 84 %
4 29-05-2014 00:39:17 10.7 C 84 %
5 29-05-2014 00:51:17 10.7 C 84 %
6 29-05-2014 01:03:17 10.6 C 85 %
7 29-05-2014 01:15:17 10.4 C 85 %
8 29-05-2014 01:27:17 10.4 C 85 %
9 29-05-2014 01:39:17 10.2 C 85 %
10 29-05-2014 01:51:17 10.1 C 85 %
11 29-05-2014 02:03:17 10.1 C 86 %
12 29-05-2014 02:15:17 10.1 C 86 %
13 29-05-2014 02:27:17 10 C 86 %
14 29-05-2014 02:39:17 9.7 C 88 %
15 29-05-2014 02:51:17 9.5 C 88 %
16 29-05-2014 03:03:18 9.6 C 88 %
17 29-05-2014 03:15:17 9.7 C 88 %
18 29-05-2014 03:27:17 9.6 C 88 %
19 29-05-2014 03:39:17 9.6 C 88 %
20 29-05-2014 03:51:17 9.5 C 89 %
21 29-05-2014 04:03:17 9.3 C 89 %
22 29-05-2014 04:15:17 9.6 C 89 %
23 29-05-2014 04:27:17 9.8 C 89 %
24 29-05-2014 04:39:17 9.9 C 89 %
25 29-05-2014 04:51:17 9.8 C 89 %
Sensor: Nr:Datum:Temp:Feuchte:
Aussen-T/F 26 29-05-2014 05:03:17 9.7 C 89 %
27 29-05-2014 05:15:17 9.6 C 89 %
28 29-05-2014 05:27:17 9.3 C 89 %
29 29-05-2014 05:39:17 9.2 C 89 %
30 29-05-2014 05:51:17 9.3 C 89 %
31 29-05-2014 06:03:17 9.3 C 90 %
32 29-05-2014 06:15:17 9.3 C 90 %
33 29-05-2014 06:27:17 9.4 C 90 %
34 29-05-2014 06:39:17 9.6 C 90 %
35 29-05-2014 06:51:17 9.7 C 90 %
36 29-05-2014 07:03:17 9.7 C 90 %
37 29-05-2014 07:15:16 9.8 C 90 %
38 29-05-2014 07:27:16 9.8 C 90 %
39 29-05-2014 07:39:17 10 C 88 %
40 29-05-2014 07:51:17 10.2 C 88 %
41 29-05-2014 08:03:17 10.4 C 88 %
42 29-05-2014 08:15:17 10.9 C 88 %
43 29-05-2014 08:27:17 11 C 86 %
44 29-05-2014 08:39:17 11.5 C 85 %
45 29-05-2014 08:51:17 11.5 C 85 %
46 29-05-2014 09:03:17 12 C 81 %
47 29-05-2014 09:15:17 12.3 C 79 %
48 29-05-2014 09:27:17 12.5 C 79 %
49 29-05-2014 09:39:17 13.2 C 76 %
50 29-05-2014 09:51:17 13.7 C 74 %
Sensor: Nr:Datum:Temp:Feuchte:
Aussen-T/F 51 29-05-2014 10:03:17 14.2 C 73 %
52 29-05-2014 10:15:17 14.2 C 73 %
53 29-05-2014 10:27:17 14.8 C 72 %
54 29-05-2014 10:39:17 15.3 C 69 %
55 29-05-2014 10:51:17 15.9 C 67 %
56 29-05-2014 11:03:17 16.2 C 65 %
57 29-05-2014 11:15:17 15.9 C 66 %
58 29-05-2014 11:27:17 17.2 C 60 %
59 29-05-2014 11:39:17 17.7 C 59 %
60 29-05-2014 11:51:17 18 C 55 %
61 29-05-2014 12:03:17 18.4 C 55 %
62 29-05-2014 12:15:17 18.6 C 53 %
63 29-05-2014 12:27:17 19.1 C 53 %
64 29-05-2014 12:39:17 19.1 C 52 %
65 29-05-2014 12:51:17 18.9 C 50 %
66 29-05-2014 13:03:17 18.9 C 52 %
67 29-05-2014 13:15:16 19.5 C 50 %
68 29-05-2014 13:27:16 19.8 C 47 %
69 29-05-2014 13:39:17 20 C 46 %
70 29-05-2014 13:51:17 20.2 C 46 %
71 29-05-2014 14:03:17 20 C 45 %
72 29-05-2014 14:15:17 20.4 C 45 %
73 29-05-2014 14:27:17 19.7 C 46 %
74 29-05-2014 14:39:17 19.4 C 48 %
75 29-05-2014 14:51:17 19.6 C 49 %
Sensor: Nr:Datum:Temp:Feuchte:
Aussen-T/F 76 29-05-2014 15:03:17 19.4 C 49 %
77 29-05-2014 15:15:17 19.3 C 48 %
78 29-05-2014 15:27:17 19.3 C 48 %
79 29-05-2014 15:39:17 18.3 C 51 %
80 29-05-2014 15:51:17 17.8 C 53 %
81 29-05-2014 16:03:17 17.5 C 54 %
82 29-05-2014 16:15:17 17.4 C 55 %
83 29-05-2014 16:27:17 17.4 C 55 %
84 29-05-2014 16:39:17 17.1 C 55 %
85 29-05-2014 16:51:17 17.2 C 55 %
86 29-05-2014 17:03:17 17.1 C 56 %
87 29-05-2014 17:15:17 17 C 57 %
88 29-05-2014 17:27:17 16.8 C 58 %
89 29-05-2014 17:39:18 16.7 C 59 %
90 29-05-2014 17:51:17 16.4 C 59 %
91 29-05-2014 18:03:17 16.4 C 60 %
92 29-05-2014 18:15:17 16.2 C 60 %
93 29-05-2014 18:27:17 16.1 C 59 %
94 29-05-2014 18:39:16 15.8 C 65 %
95 29-05-2014 18:51:17 15.4 C 68 %
96 29-05-2014 19:03:17 15.2 C 70 %
97 29-05-2014 19:15:17 15 C 70 %
98 29-05-2014 19:27:17 15.2 C 71 %
99 29-05-2014 19:39:17 15.1 C 70 %
100 29-05-2014 19:51:17 15 C 70 %
Sensor: Nr:Datum:Temp:Feuchte:
Aussen-T/F 101 29-05-2014 20:03:17 14.9 C 71 %
102 29-05-2014 20:15:17 14.7 C 71 %
103 29-05-2014 20:27:17 14.7 C 71 %
104 29-05-2014 20:39:17 14.3 C 73 %
105 29-05-2014 20:51:17 14.1 C 74 %
106 29-05-2014 21:03:17 14.1 C 75 %
107 29-05-2014 21:15:17 14.1 C 76 %
108 29-05-2014 21:27:17 14 C 76 %
109 29-05-2014 21:39:17 13.9 C 77 %
110 29-05-2014 21:51:17 13.8 C 77 %
111 29-05-2014 22:03:17 13.6 C 77 %
112 29-05-2014 22:15:17 13.6 C 77 %
113 29-05-2014 22:27:17 13.2 C 74 %
114 29-05-2014 22:39:17 13.1 C 73 %
115 29-05-2014 22:51:17 13 C 72 %
116 29-05-2014 23:03:17 12.8 C 72 %
117 29-05-2014 23:15:17 12.6 C 71 %
118 29-05-2014 23:27:17 12.6 C 71 %
119 29-05-2014 23:39:17 12.5 C 71 %
120 29-05-2014 23:51:17 12.3 C 71 %
121 30-05-2014 00:03:17 12.3 C 70 %
122 30-05-2014 00:15:17 12.2 C 70 %
123 30-05-2014 00:27:17 11.7 C 70 %
124 30-05-2014 00:39:17 11.7 C 70 %
125 30-05-2014 00:51:17 11.7 C 70 %
Sensor: Nr:Datum:Temp:Feuchte:
Aussen-T/F 126 30-05-2014 01:03:17 11.8 C 71 %
127 30-05-2014 01:15:17 11.7 C 71 %
128 30-05-2014 01:27:17 11.5 C 70 %
129 30-05-2014 01:39:17 11.4 C 69 %
130 30-05-2014 01:51:17 11.4 C 68 %
131 30-05-2014 02:03:17 11.3 C 67 %
132 30-05-2014 02:15:17 11.3 C 68 %
133 30-05-2014 02:27:17 11.3 C 68 %
134 30-05-2014 02:39:17 11.3 C 69 %
135 30-05-2014 02:51:17 11.3 C 69 %
136 30-05-2014 03:03:17 11.2 C 69 %
137 30-05-2014 03:15:17 11.1 C 68 %
138 30-05-2014 03:27:17 11.1 C 68 %
139 30-05-2014 03:39:17 11.1 C 68 %
140 30-05-2014 03:51:17 11.1 C 67 %
141 30-05-2014 04:03:17 11.1 C 68 %
142 30-05-2014 04:15:17 10.9 C 68 %
143 30-05-2014 04:27:17 11.2 C 68 %
144 30-05-2014 04:39:17 10.8 C 68 %
145 30-05-2014 04:51:17 10.8 C 67 %
146 30-05-2014 05:03:17 10.8 C 68 %
147 30-05-2014 05:15:17 10.7 C 68 %
148 30-05-2014 05:27:17 10.6 C 68 %
149 30-05-2014 05:39:17 10.6 C 68 %
150 30-05-2014 05:51:17 10.6 C 68 %
Sensor: Nr:Datum:Temp:Feuchte:
Aussen-T/F 151 30-05-2014 06:03:17 10.6 C 68 %
152 30-05-2014 06:15:17 10.5 C 68 %
153 30-05-2014 06:27:17 10.6 C 67 %
154 30-05-2014 06:39:17 10.8 C 65 %
155 30-05-2014 06:51:17 10.8 C 65 %
156 30-05-2014 07:03:17 10.8 C 63 %
157 30-05-2014 07:15:17 10.9 C 62 %
158 30-05-2014 07:27:17 10.9 C 62 %
159 30-05-2014 07:39:17 10.9 C 62 %
160 30-05-2014 07:51:17 11.6 C 58 %
161 30-05-2014 08:03:17 12 C 56 %
162 30-05-2014 08:15:17 12 C 56 %
163 30-05-2014 08:27:17 11.8 C 55 %
164 30-05-2014 08:39:17 11.8 C 55 %
165 30-05-2014 08:51:17 14.3 C 45 %
166 30-05-2014 09:03:17 14.2 C 41 %
167 30-05-2014 09:15:17 17.3 C 40 %
168 30-05-2014 09:27:17 17.3 C 36 %
169 30-05-2014 09:39:17 16.5 C 39 %
170 30-05-2014 09:51:17 14.2 C 42 %
171 30-05-2014 10:03:17 14.2 C 42 %
172 30-05-2014 10:15:17 14.2 C 42 %
173 30-05-2014 10:27:17 14.3 C 45 %
174 30-05-2014 10:39:17 14.6 C 43 %
175 30-05-2014 10:51:17 15.6 C 42 %
Sensor: Nr:Datum:Temp:Feuchte:
Aussen-T/F 176 30-05-2014 11:03:17 15.4 C 42 %
177 30-05-2014 11:15:17 15.6 C 42 %
178 30-05-2014 11:27:17 15.4 C 42 %
179 30-05-2014 11:39:17 14.6 C 42 %
180 30-05-2014 11:51:17 15.6 C 40 %
181 30-05-2014 12:03:17 16 C 39 %
182 30-05-2014 12:15:17 15.4 C 39 %
183 30-05-2014 12:27:17 15.4 C 39 %
184 30-05-2014 12:39:17 15.4 C 39 %
185 30-05-2014 12:51:17 16.5 C 39 %
186 30-05-2014 13:03:17 17.1 C 37 %
187 30-05-2014 13:15:17 17 C 36 %
188 30-05-2014 13:27:17 17.7 C 36 %
189 30-05-2014 13:39:17 17.2 C 36 %
190 30-05-2014 13:51:17 18.1 C 37 %
191 30-05-2014 14:03:17 19.4 C 34 %
192 30-05-2014 14:15:17 19.1 C 34 %
193 30-05-2014 14:27:17 18.8 C 33 %
194 30-05-2014 14:39:17 19.1 C 33 %
195 30-05-2014 14:51:17 18.7 C 33 %
196 30-05-2014 15:03:18 18.3 C 34 %
197 30-05-2014 15:15:17 17.7 C 36 %
198 30-05-2014 15:27:17 19.1 C 33 %
199 30-05-2014 15:39:17 19.9 C 33 %
200 30-05-2014 15:51:17 21.1 C 31 %
Sensor: Nr:Datum:Temp:Feuchte:
Aussen-T/F 201 30-05-2014 16:03:17 20.4 C 31 %
202 30-05-2014 16:15:17 20 C 32 %
203 30-05-2014 16:27:17 20 C 32 %
204 30-05-2014 16:39:17 23 C 25 %
205 30-05-2014 16:51:17 22.4 C 26 %
206 30-05-2014 17:03:17 19.4 C 34 %
207 30-05-2014 17:15:17 18.8 C 36 %
208 30-05-2014 17:27:17 18.1 C 36 %
209 30-05-2014 17:39:17 19.3 C 35 %
210 30-05-2014 17:51:17 19.3 C 35 %
211 30-05-2014 18:03:17 22.6 C 25 %
212 30-05-2014 18:15:17 23.4 C 23 %
213 30-05-2014 18:27:17 22.8 C 25 %
214 30-05-2014 18:39:17 22.1 C 29 %
215 30-05-2014 18:51:17 22.1 C 25 %
216 30-05-2014 19:03:17 22.1 C 25 %
217 30-05-2014 19:15:17 17.7 C 36 %
218 30-05-2014 19:27:17 17.7 C 36 %
219 30-05-2014 19:39:18 17.7 C 36 %
220 30-05-2014 19:51:17 16.4 C 40 %
221 30-05-2014 20:03:17 16.4 C 40 %
222 30-05-2014 20:15:17 16 C 43 %
223 30-05-2014 20:27:17 15.7 C 43 %
224 30-05-2014 20:39:17 15.2 C 43 %
225 30-05-2014 20:51:17 14.5 C 50 %
Sensor: Nr:Datum:Temp:Feuchte:
Aussen-T/F 226 30-05-2014 21:03:16 13.8 C 53 %
227 30-05-2014 21:15:17 13.3 C 53 %
228 30-05-2014 21:27:17 12.6 C 56 %
229 30-05-2014 21:39:17 12.2 C 56 %
230 30-05-2014 21:51:17 11.7 C 58 %
231 30-05-2014 22:03:17 11.2 C 59 %
232 30-05-2014 22:15:17 10.8 C 61 %
233 30-05-2014 22:27:17 10.8 C 61 %
234 30-05-2014 22:39:17 10.8 C 61 %
235 30-05-2014 22:51:17 10.8 C 61 %
236 30-05-2014 23:03:17 10.8 C 61 %
237 30-05-2014 23:15:17 10.8 C 61 %
238 30-05-2014 23:27:17 9 C 69 %
239 30-05-2014 23:39:17 8.9 C 70 %
240 30-05-2014 23:51:17 8.6 C 71 %
241 31-05-2014 00:03:17 8.6 C 71 %
242 31-05-2014 00:15:16 8.3 C 73 %
243 31-05-2014 00:27:17 8.1 C 73 %
244 31-05-2014 00:39:17 7.9 C 74 %
245 31-05-2014 00:51:17 8 C 75 %
246 31-05-2014 01:03:17 7.8 C 76 %
247 31-05-2014 01:15:17 7.6 C 76 %
248 31-05-2014 01:27:17 7.6 C 77 %
249 31-05-2014 01:39:17 7.5 C 78 %
250 31-05-2014 01:51:17 7.3 C 78 %
Sensor: Nr:Datum:Temp:Feuchte:
Aussen-T/F 251 31-05-2014 02:03:17 7.2 C 78 %
252 31-05-2014 02:15:17 7.1 C 79 %
253 31-05-2014 02:27:17 7.1 C 79 %
254 31-05-2014 02:39:17 7 C 80 %
255 31-05-2014 02:51:17 6.9 C 81 %
256 31-05-2014 03:03:17 6.8 C 81 %
257 31-05-2014 03:15:17 6.7 C 81 %
258 31-05-2014 03:27:17 6.6 C 82 %
259 31-05-2014 03:39:17 6.4 C 82 %
260 31-05-2014 03:51:17 6.4 C 82 %
261 31-05-2014 04:03:17 6.4 C 83 %
262 31-05-2014 04:15:17 6.3 C 83 %
263 31-05-2014 04:27:17 6.3 C 83 %
264 31-05-2014 04:39:17 6.1 C 83 %
265 31-05-2014 04:51:17 5.9 C 84 %
266 31-05-2014 05:03:17 5.8 C 84 %
267 31-05-2014 05:15:17 5.8 C 85 %
268 31-05-2014 05:27:17 5.6 C 85 %
269 31-05-2014 05:39:17 5.5 C 85 %
270 31-05-2014 05:51:17 5.6 C 85 %
271 31-05-2014 06:03:17 5.7 C 85 %
272 31-05-2014 06:15:17 5.8 C 85 %
273 31-05-2014 06:27:17 5.8 C 85 %
274 31-05-2014 06:39:17 6 C 85 %
275 31-05-2014 06:51:17 6.3 C 85 %
Sensor: Nr:Datum:Temp:Feuchte:
Aussen-T/F 276 31-05-2014 07:03:17 6.3 C 85 %
277 31-05-2014 07:15:17 6.3 C 85 %
278 31-05-2014 07:27:17 6.6 C 84 %
279 31-05-2014 07:39:17 6.7 C 84 %
280 31-05-2014 07:51:17 6.7 C 84 %
281 31-05-2014 08:03:17 7 C 83 %
282 31-05-2014 08:15:17 7.3 C 83 %
283 31-05-2014 08:27:17 7.8 C 83 %
284 31-05-2014 08:39:17 8.9 C 83 %
285 31-05-2014 08:51:17 12.3 C 79 %
286 31-05-2014 09:03:17 12.8 C 59 %
287 31-05-2014 09:15:17 12.2 C 59 %
288 31-05-2014 09:27:17 12.2 C 59 %
289 31-05-2014 09:39:17 17.5 C 44 %
290 31-05-2014 09:51:17 14.5 C 50 %
291 31-05-2014 10:03:17 13.3 C 58 %
292 31-05-2014 10:15:17 13.3 C 58 %
293 31-05-2014 10:27:17 12.9 C 63 %
294 31-05-2014 10:39:17 13.1 C 65 %
295 31-05-2014 10:51:17 13.1 C 65 %
296 31-05-2014 11:03:17 13.1 C 65 %
297 31-05-2014 11:15:17 13.1 C 65 %
298 31-05-2014 11:27:17 16.4 C 51 %
299 31-05-2014 11:39:17 16.7 C 49 %
300 31-05-2014 11:51:17 17.1 C 49 %
Sensor: Nr:Datum:Temp:Feuchte:
Aussen-T/F 301 31-05-2014 12:03:17 17.6 C 44 %
302 31-05-2014 12:15:17 18 C 41 %
303 31-05-2014 12:27:17 17.6 C 45 %
304 31-05-2014 12:39:17 17.7 C 41 %
305 31-05-2014 12:51:17 18.6 C 39 %
306 31-05-2014 13:03:17 18.6 C 39 %
307 31-05-2014 13:15:16 18.6 C 39 %
308 31-05-2014 13:27:17 19.6 C 36 %
309 31-05-2014 13:39:17 19.6 C 37 %
310 31-05-2014 13:51:17 19.6 C 36 %
311 31-05-2014 14:03:17 19.9 C 36 %
312 31-05-2014 14:15:17 19.6 C 36 %
313 31-05-2014 14:27:17 19.1 C 40 %
314 31-05-2014 14:39:17 19.1 C 40 %
315 31-05-2014 14:51:17 19.1 C 40 %
316 31-05-2014 15:03:17 22 C 29 %
317 31-05-2014 15:15:17 21.4 C 34 %
318 31-05-2014 15:27:17 20.7 C 32 %
319 31-05-2014 15:39:17 21.2 C 36 %
320 31-05-2014 15:51:17 22.3 C 30 %
321 31-05-2014 16:03:17 21.5 C 32 %
322 31-05-2014 16:15:17 21.8 C 32 %
323 31-05-2014 16:27:17 21.3 C 35 %
324 31-05-2014 16:39:17 20.7 C 33 %
325 31-05-2014 16:51:17 20.5 C 40 %
Sensor: Nr:Datum:Temp:Feuchte:
Aussen-T/F 326 31-05-2014 17:03:17 20.4 C 45 %
327 31-05-2014 17:15:17 28.2 C 20 %
328 31-05-2014 17:27:17 24 C 25 %
329 31-05-2014 17:39:17 24.2 C 25 %
330 31-05-2014 17:51:17 23.1 C 28 %
331 31-05-2014 18:03:17 23.1 C 28 %
332 31-05-2014 18:15:17 21.5 C 33 %
333 31-05-2014 18:27:17 24.5 C 28 %
334 31-05-2014 18:39:17 27.9 C 20 %
335 31-05-2014 18:51:17 27.4 C 20 %
336 31-05-2014 19:03:17 24.9 C 24 %
337 31-05-2014 19:15:17 24.2 C 25 %
338 31-05-2014 19:27:17 23.2 C 27 %
339 31-05-2014 19:39:17 21.2 C 31 %
340 31-05-2014 19:51:17 20.8 C 32 %
341 31-05-2014 20:03:17 19.8 C 42 %
342 31-05-2014 20:15:17 18.9 C 46 %
343 31-05-2014 20:27:17 17.8 C 51 %
344 31-05-2014 20:39:17 17.2 C 53 %
345 31-05-2014 20:51:17 16.5 C 54 %
346 31-05-2014 21:03:17 16.1 C 53 %
347 31-05-2014 21:15:17 16.1 C 53 %
348 31-05-2014 21:27:17 15.1 C 55 %
349 31-05-2014 21:39:17 14.9 C 57 %
350 31-05-2014 21:51:17 14.9 C 57 %
Sensor: Nr:Datum:Temp:Feuchte:
Aussen-T/F 351 31-05-2014 22:03:17 14.2 C 60 %
352 31-05-2014 22:15:17 14 C 60 %
353 31-05-2014 22:27:17 13.8 C 62 %
354 31-05-2014 22:39:17 13.8 C 62 %
355 31-05-2014 22:51:17 13.8 C 62 %
356 31-05-2014 23:03:17 13.7 C 63 %
357 31-05-2014 23:15:17 13.6 C 64 %
358 31-05-2014 23:27:17 13.5 C 64 %
359 31-05-2014 23:39:17 13 C 64 %
360 31-05-2014 23:51:17 12.7 C 66 %
361 01-06-2014 00:03:17 12.5 C 67 %
362 01-06-2014 00:15:17 12.4 C 68 %
363 01-06-2014 00:27:17 12.4 C 68 %
364 01-06-2014 00:39:17 12.4 C 69 %
365 01-06-2014 00:51:17 12.4 C 69 %
366 01-06-2014 01:03:17 12.4 C 69 %
367 01-06-2014 01:15:17 12.2 C 69 %
368 01-06-2014 01:27:17 12.3 C 69 %
369 01-06-2014 01:39:17 12.1 C 69 %
370 01-06-2014 01:51:16 12.1 C 69 %
371 01-06-2014 02:03:17 12.1 C 70 %
372 01-06-2014 02:15:17 11.8 C 71 %
373 01-06-2014 02:27:17 11.6 C 70 %
374 01-06-2014 02:39:18 11.1 C 71 %
375 01-06-2014 02:51:17 10.7 C 72 %
Sensor: Nr:Datum:Temp:Feuchte:
Aussen-T/F 376 01-06-2014 03:03:17 10.4 C 73 %
377 01-06-2014 03:15:17 10.4 C 73 %
378 01-06-2014 03:27:17 9.9 C 75 %
379 01-06-2014 03:39:17 10 C 74 %
380 01-06-2014 03:51:17 10 C 74 %
381 01-06-2014 04:03:17 10.3 C 76 %
382 01-06-2014 04:15:17 10 C 75 %
383 01-06-2014 04:27:17 9.8 C 77 %
384 01-06-2014 04:39:17 9.9 C 77 %
385 01-06-2014 04:51:17 10.1 C 76 %
386 01-06-2014 05:03:17 10.1 C 76 %
387 01-06-2014 05:15:17 10.2 C 77 %
388 01-06-2014 05:27:17 10.4 C 77 %
389 01-06-2014 05:39:17 10.4 C 77 %
390 01-06-2014 05:51:17 10.9 C 77 %
391 01-06-2014 06:03:17 11.2 C 76 %
392 01-06-2014 06:15:17 11.2 C 76 %
393 01-06-2014 06:27:17 11.5 C 73 %
394 01-06-2014 06:39:17 11.6 C 72 %
395 01-06-2014 06:51:17 11.7 C 71 %
396 01-06-2014 07:03:17 11.8 C 70 %
397 01-06-2014 07:15:17 12.1 C 68 %
398 01-06-2014 07:27:17 12.5 C 68 %
399 01-06-2014 07:39:17 12.6 C 67 %
400 01-06-2014 07:51:17 12.6 C 67 %
Sensor: Nr:Datum:Temp:Feuchte:
Aussen-T/F 401 01-06-2014 08:03:17 12.7 C 66 %
402 01-06-2014 08:15:17 12.8 C 66 %
403 01-06-2014 08:27:17 12.9 C 66 %
404 01-06-2014 08:39:17 12.9 C 66 %
405 01-06-2014 08:51:17 14 C 64 %
406 01-06-2014 09:03:17 14.9 C 57 %
407 01-06-2014 09:15:17 18.1 C 54 %
408 01-06-2014 09:27:17 18.8 C 46 %
409 01-06-2014 09:39:17 15.9 C 52 %
410 01-06-2014 09:51:17 15.9 C 54 %
411 01-06-2014 10:03:17 16.1 C 53 %
412 01-06-2014 10:15:17 16.1 C 52 %
413 01-06-2014 10:27:17 16.1 C 52 %
414 01-06-2014 10:39:17 16.6 C 51 %
415 01-06-2014 10:51:17 17.1 C 49 %
416 01-06-2014 11:03:17 17.4 C 46 %
417 01-06-2014 11:15:16 17.7 C 46 %
418 01-06-2014 11:27:17 17.8 C 45 %
419 01-06-2014 11:39:17 18 C 44 %
420 01-06-2014 11:51:17 18 C 45 %
421 01-06-2014 12:03:17 18.2 C 44 %
422 01-06-2014 12:15:17 18.7 C 43 %
423 01-06-2014 12:27:17 18.7 C 41 %
424 01-06-2014 12:39:17 19.1 C 42 %
425 01-06-2014 12:51:17 19.1 C 42 %
Sensor: Nr:Datum:Temp:Feuchte:
Aussen-T/F 426 01-06-2014 13:03:17 19.3 C 41 %
427 01-06-2014 13:15:17 19.8 C 39 %
428 01-06-2014 13:27:17 19.8 C 39 %
429 01-06-2014 13:39:17 20.6 C 37 %
430 01-06-2014 13:51:17 21 C 35 %
431 01-06-2014 14:03:17 20 C 36 %
432 01-06-2014 14:15:17 20.3 C 37 %
433 01-06-2014 14:27:17 20.3 C 37 %
434 01-06-2014 14:39:17 20.3 C 37 %
435 01-06-2014 14:51:17 20.3 C 37 %
436 01-06-2014 15:03:17 20.3 C 37 %
437 01-06-2014 15:15:17 20.3 C 37 %
438 01-06-2014 15:27:17 23.3 C 30 %
439 01-06-2014 15:39:17 23.3 C 30 %
440 01-06-2014 15:51:17 23.9 C 27 %
441 01-06-2014 16:03:17 23.1 C 29 %
442 01-06-2014 16:15:17 23.3 C 27 %
443 01-06-2014 16:27:17 23.3 C 27 %
444 01-06-2014 16:39:17 23.6 C 28 %
445 01-06-2014 16:51:17 23.1 C 28 %
446 01-06-2014 17:03:17 22.2 C 30 %
447 01-06-2014 17:15:17 22.2 C 30 %
448 01-06-2014 17:27:17 23.7 C 30 %
449 01-06-2014 17:39:17 24.6 C 26 %
450 01-06-2014 17:51:17 23.7 C 26 %
Sensor: Nr:Datum:Temp:Feuchte:
Aussen-T/F 451 01-06-2014 18:03:17 21.2 C 31 %
452 01-06-2014 18:15:17 20.9 C 33 %
453 01-06-2014 18:27:17 20.8 C 33 %
454 01-06-2014 18:39:17 20.9 C 32 %
455 01-06-2014 18:51:17 20.8 C 32 %
456 01-06-2014 19:03:17 21.2 C 30 %
457 01-06-2014 19:15:17 20.5 C 33 %
458 01-06-2014 19:27:17 20.8 C 34 %
459 01-06-2014 19:39:17 20.5 C 34 %
460 01-06-2014 19:51:17 19.9 C 35 %
461 01-06-2014 20:03:17 19.5 C 35 %
462 01-06-2014 20:15:17 19.4 C 36 %
463 01-06-2014 20:27:17 18.8 C 38 %
464 01-06-2014 20:39:17 18.1 C 44 %
465 01-06-2014 20:51:17 17.4 C 47 %
466 01-06-2014 21:03:17 17.4 C 47 %
467 01-06-2014 21:15:17 16.6 C 51 %
468 01-06-2014 21:27:17 16.3 C 52 %
469 01-06-2014 21:39:17 16.2 C 52 %
470 01-06-2014 21:51:17 16.2 C 52 %
471 01-06-2014 22:03:17 16.2 C 52 %
472 01-06-2014 22:15:17 16.2 C 52 %
473 01-06-2014 22:27:17 16.2 C 52 %
474 01-06-2014 22:39:17 16.2 C 52 %
475 01-06-2014 22:51:16 15 C 55 %
Sensor: Nr:Datum:Temp:Feuchte:
Aussen-T/F 476 01-06-2014 23:03:17 14.8 C 57 %
477 01-06-2014 23:15:17 14.6 C 57 %
478 01-06-2014 23:27:17 14.2 C 56 %
479 01-06-2014 23:39:17 14.2 C 56 %
480 01-06-2014 23:51:17 14.3 C 57 %
481 02-06-2014 00:03:17 14.3 C 57 %
482 02-06-2014 00:15:17 14.1 C 57 %
483 02-06-2014 00:27:17 14 C 56 %
484 02-06-2014 00:39:17 13.7 C 58 %
485 02-06-2014 00:51:17 13.7 C 58 %
486 02-06-2014 01:03:17 13.6 C 59 %
487 02-06-2014 01:15:17 13.5 C 59 %
488 02-06-2014 01:27:17 13.6 C 58 %
489 02-06-2014 01:39:17 13.1 C 60 %
490 02-06-2014 01:51:17 12.9 C 61 %
491 02-06-2014 02:03:17 12.3 C 62 %
492 02-06-2014 02:15:17 12.1 C 63 %
493 02-06-2014 02:27:17 11.7 C 64 %
494 02-06-2014 02:39:17 11.3 C 65 %
495 02-06-2014 02:51:17 11.1 C 66 %
496 02-06-2014 03:03:17 11 C 67 %
497 02-06-2014 03:15:17 10.6 C 68 %
498 02-06-2014 03:27:17 10.2 C 69 %
499 02-06-2014 03:39:17 10.1 C 70 %
500 02-06-2014 03:51:17 10 C 70 %
Sensor: Nr:Datum:Temp:Feuchte:
Aussen-T/F 501 02-06-2014 04:03:17 9.3 C 72 %
502 02-06-2014 04:15:17 9.2 C 73 %
503 02-06-2014 04:27:17 9.2 C 73 %
504 02-06-2014 04:39:17 8.9 C 75 %
505 02-06-2014 04:51:17 8.8 C 76 %
506 02-06-2014 05:03:17 8.7 C 76 %
507 02-06-2014 05:15:17 8.7 C 76 %
508 02-06-2014 05:27:17 8.6 C 78 %
509 02-06-2014 05:39:17 8.5 C 78 %
510 02-06-2014 05:51:17 8.5 C 78 %
511 02-06-2014 06:03:17 8.6 C 79 %
512 02-06-2014 06:15:17 8.7 C 80 %
513 02-06-2014 06:27:17 9 C 79 %
514 02-06-2014 06:39:17 9.1 C 79 %
515 02-06-2014 06:51:16 9.4 C 79 %
516 02-06-2014 07:03:17 9.6 C 79 %
517 02-06-2014 07:15:17 9.7 C 78 %
518 02-06-2014 07:27:17 10 C 77 %
519 02-06-2014 07:39:17 10 C 76 %
520 02-06-2014 07:51:17 10.2 C 76 %
521 02-06-2014 08:03:17 10.5 C 75 %
522 02-06-2014 08:15:17 10.7 C 75 %
523 02-06-2014 08:27:17 11 C 75 %
524 02-06-2014 08:39:17 11.6 C 75 %
525 02-06-2014 08:51:17 14.8 C 76 %
Sensor: Nr:Datum:Temp:Feuchte:
Aussen-T/F 526 02-06-2014 09:03:17 16.1 C 58 %
527 02-06-2014 09:15:17 15.8 C 57 %
528 02-06-2014 09:27:18 16.4 C 55 %
529 02-06-2014 09:39:17 18 C 54 %
530 02-06-2014 09:51:17 17.4 C 46 %
531 02-06-2014 10:03:17 16.5 C 48 %
532 02-06-2014 10:15:17 16.8 C 49 %
533 02-06-2014 10:27:17 16.5 C 48 %
534 02-06-2014 10:39:17 16.8 C 50 %
535 02-06-2014 10:51:17 17 C 49 %
536 02-06-2014 11:03:17 17.6 C 48 %
537 02-06-2014 11:15:17 17.9 C 46 %
538 02-06-2014 11:27:17 18.4 C 45 %
539 02-06-2014 11:39:17 18.4 C 45 %
540 02-06-2014 11:51:17 18.7 C 40 %
541 02-06-2014 12:03:17 19.2 C 39 %
542 02-06-2014 12:15:17 19.5 C 39 %
543 02-06-2014 12:27:17 20.3 C 37 %
544 02-06-2014 12:39:17 20.2 C 36 %
545 02-06-2014 12:51:17 19.8 C 37 %
546 02-06-2014 13:03:17 19.8 C 37 %
547 02-06-2014 13:15:17 19.8 C 37 %
548 02-06-2014 13:27:17 20.8 C 35 %
549 02-06-2014 13:39:17 20.7 C 36 %
550 02-06-2014 13:51:17 21.5 C 36 %
Sensor: Nr:Datum:Temp:Feuchte:
Aussen-T/F 551 02-06-2014 14:03:17 21.4 C 33 %
552 02-06-2014 14:15:17 21.5 C 33 %
553 02-06-2014 14:27:17 21.8 C 33 %
554 02-06-2014 14:39:17 22.1 C 33 %
555 02-06-2014 14:51:17 22.5 C 32 %
556 02-06-2014 15:03:17 22.5 C 32 %
557 02-06-2014 15:15:17 22.9 C 30 %
558 02-06-2014 15:27:17 23.9 C 28 %
559 02-06-2014 15:39:17 24 C 27 %
560 02-06-2014 15:51:17 25.2 C 25 %
561 02-06-2014 16:03:17 25.2 C 25 %
562 02-06-2014 16:15:17 24.9 C 28 %
563 02-06-2014 16:27:17 27 C 22 %
564 02-06-2014 16:39:17 27.2 C 21 %
565 02-06-2014 16:51:17 31.4 C 20 %
566 02-06-2014 17:03:17 33.7 C 20 %
567 02-06-2014 17:15:17 33 C 20 %
568 02-06-2014 17:27:18 33 C 20 %
569 02-06-2014 17:39:18 34.4 C 20 %
570 02-06-2014 17:51:17 32.8 C 20 %
571 02-06-2014 18:03:17 34.4 C 20 %
572 02-06-2014 18:15:17 32.5 C 20 %
573 02-06-2014 18:27:17 32.4 C 20 %
574 02-06-2014 18:39:17 33.1 C 20 %
575 02-06-2014 18:51:17 31.2 C 20 %
Sensor: Nr:Datum:Temp:Feuchte:
Aussen-T/F 576 02-06-2014 19:03:17 27.9 C 20 %
577 02-06-2014 19:15:17 26.3 C 23 %
578 02-06-2014 19:27:17 26.3 C 23 %
579 02-06-2014 19:39:17 24.1 C 26 %
580 02-06-2014 19:51:17 23.7 C 27 %
581 02-06-2014 20:03:17 23.5 C 27 %
582 02-06-2014 20:15:17 22.5 C 30 %
583 02-06-2014 20:27:17 22 C 31 %
584 02-06-2014 20:39:17 20.7 C 38 %
585 02-06-2014 20:51:17 20.1 C 43 %
586 02-06-2014 21:03:17 19.4 C 44 %
587 02-06-2014 21:15:17 18.9 C 45 %
588 02-06-2014 21:27:17 18.6 C 46 %
589 02-06-2014 21:39:17 18.1 C 46 %
590 02-06-2014 21:51:17 18 C 45 %
591 02-06-2014 22:03:17 17.4 C 47 %
592 02-06-2014 22:15:17 17 C 47 %
593 02-06-2014 22:27:17 17 C 48 %
594 02-06-2014 22:39:17 17 C 48 %
595 02-06-2014 22:51:17 17 C 48 %
596 02-06-2014 23:03:17 16.8 C 50 %
597 02-06-2014 23:15:17 16.7 C 51 %
598 02-06-2014 23:27:17 16.4 C 52 %
599 02-06-2014 23:39:17 16 C 50 %
600 02-06-2014 23:51:17 15.8 C 52 %
Sensor: Nr:Datum:Temp:Feuchte:
Aussen-T/F 601 03-06-2014 00:03:18 15.7 C 53 %
602 03-06-2014 00:15:17 15.7 C 53 %
603 03-06-2014 00:27:18 15.3 C 56 %
604 03-06-2014 00:39:17 15.1 C 56 %
605 03-06-2014 00:51:17 14.7 C 58 %
606 03-06-2014 01:03:17 14.2 C 59 %
607 03-06-2014 01:15:17 13.9 C 61 %
608 03-06-2014 01:27:17 13.6 C 61 %
609 03-06-2014 01:39:17 13.6 C 61 %
610 03-06-2014 01:51:17 13.6 C 61 %
611 03-06-2014 02:03:17 12.9 C 64 %
612 03-06-2014 02:15:17 12.5 C 66 %
613 03-06-2014 02:27:17 12.5 C 66 %
614 03-06-2014 02:39:17 12 C 66 %
615 03-06-2014 02:51:17 12 C 66 %
616 03-06-2014 03:03:17 11.4 C 69 %
617 03-06-2014 03:15:16 11.3 C 69 %
618 03-06-2014 03:27:16 11.3 C 69 %
619 03-06-2014 03:39:17 10.8 C 71 %
620 03-06-2014 03:51:17 10.6 C 71 %
621 03-06-2014 04:03:17 10.5 C 71 %
622 03-06-2014 04:15:17 10.5 C 71 %
623 03-06-2014 04:27:17 10.2 C 73 %
624 03-06-2014 04:39:17 10 C 73 %
625 03-06-2014 04:51:17 10 C 73 %
Sensor: Nr:Datum:Temp:Feuchte:
Aussen-T/F 626 03-06-2014 05:03:17 10 C 73 %
627 03-06-2014 05:15:16 9.9 C 76 %
628 03-06-2014 05:27:17 9.8 C 77 %
629 03-06-2014 05:39:17 9.7 C 77 %
630 03-06-2014 05:51:17 9.8 C 78 %
631 03-06-2014 06:03:17 9.9 C 78 %
632 03-06-2014 06:15:17 10.2 C 77 %
633 03-06-2014 06:27:17 10.2 C 77 %
634 03-06-2014 06:39:17 10.9 C 78 %
635 03-06-2014 06:51:17 11.3 C 76 %
636 03-06-2014 07:03:17 11.4 C 76 %
637 03-06-2014 07:15:17 12 C 74 %
638 03-06-2014 07:27:17 12.2 C 72 %
639 03-06-2014 07:39:17 12.5 C 71 %
640 03-06-2014 07:51:17 12.9 C 69 %
641 03-06-2014 08:03:17 13.1 C 67 %
642 03-06-2014 08:15:17 13.1 C 67 %
643 03-06-2014 08:27:17 13.1 C 67 %
644 03-06-2014 08:39:17 13.5 C 67 %
645 03-06-2014 08:51:17 14.4 C 66 %
646 03-06-2014 09:03:17 14.7 C 62 %
647 03-06-2014 09:15:17 14.7 C 62 %
648 03-06-2014 09:27:17 14.7 C 62 %
649 03-06-2014 09:39:17 21 C 43 %
650 03-06-2014 09:51:17 19 C 45 %
Sensor: Nr:Datum:Temp:Feuchte:
Aussen-T/F 651 03-06-2014 10:03:17 17.6 C 51 %
652 03-06-2014 10:15:17 17.6 C 53 %
653 03-06-2014 10:27:17 18.1 C 51 %
654 03-06-2014 10:39:17 18.2 C 49 %
655 03-06-2014 10:51:16 19 C 46 %
656 03-06-2014 11:03:17 18.2 C 50 %
657 03-06-2014 11:15:17 18.4 C 52 %
658 03-06-2014 11:27:17 18.4 C 52 %
659 03-06-2014 11:39:17 19.3 C 49 %
660 03-06-2014 11:51:17 19.8 C 46 %
661 03-06-2014 12:03:17 19.5 C 46 %
662 03-06-2014 12:15:17 18.5 C 55 %
663 03-06-2014 12:27:17 18.3 C 59 %
664 03-06-2014 12:39:17 18.7 C 59 %
665 03-06-2014 12:51:17 18.7 C 59 %
666 03-06-2014 13:03:17 20.3 C 40 %
667 03-06-2014 13:15:17 20.9 C 37 %
668 03-06-2014 13:27:17 21.1 C 34 %
669 03-06-2014 13:39:17 21.1 C 34 %
670 03-06-2014 13:51:17 21.1 C 34 %
671 03-06-2014 14:03:17 21.1 C 34 %
672 03-06-2014 14:15:17 21.1 C 34 %
673 03-06-2014 14:27:17 21.5 C 40 %
674 03-06-2014 14:39:17 21.4 C 44 %
675 03-06-2014 14:51:17 21.4 C 44 %
Sensor: Nr:Datum:Temp:Feuchte:
Aussen-T/F 676 03-06-2014 15:03:17 21.4 C 44 %
677 03-06-2014 15:15:17 20.2 C 41 %
678 03-06-2014 15:27:17 20.2 C 41 %
679 03-06-2014 15:39:17 20.7 C 39 %
680 03-06-2014 15:51:17 20.7 C 39 %
681 03-06-2014 16:03:18 20.7 C 39 %
682 03-06-2014 16:15:17 20.7 C 39 %
683 03-06-2014 16:27:17 20.7 C 39 %
684 03-06-2014 16:39:17 20.7 C 39 %
685 03-06-2014 16:51:17 20.7 C 39 %
686 03-06-2014 17:03:17 20.7 C 39 %
687 03-06-2014 17:15:17 20.7 C 39 %
688 03-06-2014 17:27:17 20.4 C 51 %
689 03-06-2014 17:39:18 20.4 C 52 %
690 03-06-2014 17:51:17 22 C 42 %
691 03-06-2014 18:03:17 22.1 C 42 %
692 03-06-2014 18:15:17 21.3 C 40 %
693 03-06-2014 18:27:17 23.8 C 40 %
694 03-06-2014 18:39:17 27.2 C 29 %
695 03-06-2014 18:51:17 27.1 C 26 %
696 03-06-2014 19:03:18 25.5 C 31 %
697 03-06-2014 19:15:17 25.5 C 31 %
698 03-06-2014 19:27:17 25.5 C 31 %
699 03-06-2014 19:39:17 19.7 C 49 %
700 03-06-2014 19:51:17 18.9 C 53 %
Sensor: Nr:Datum:Temp:Feuchte:
Aussen-T/F 701 03-06-2014 20:03:17 18.7 C 53 %
702 03-06-2014 20:15:17 18.4 C 53 %
703 03-06-2014 20:27:17 18.1 C 53 %
704 03-06-2014 20:39:17 18.1 C 53 %
705 03-06-2014 20:51:17 18 C 54 %
706 03-06-2014 21:03:17 17.7 C 57 %
707 03-06-2014 21:15:17 17.3 C 57 %
708 03-06-2014 21:27:17 16.8 C 57 %
709 03-06-2014 21:39:17 16 C 58 %
710 03-06-2014 21:51:17 15.7 C 59 %
711 03-06-2014 22:03:17 15.7 C 59 %
712 03-06-2014 22:15:17 15.7 C 59 %
713 03-06-2014 22:27:17 14.8 C 62 %
714 03-06-2014 22:39:17 14.4 C 63 %
715 03-06-2014 22:51:17 14.4 C 63 %
716 03-06-2014 23:03:17 14.4 C 63 %
717 03-06-2014 23:15:17 14.4 C 63 %
718 03-06-2014 23:27:17 14.4 C 63 %
719 03-06-2014 23:39:17 14.4 C 63 %
720 03-06-2014 23:51:17 14.4 C 63 %
721 04-06-2014 00:03:17 14.4 C 63 %
722 04-06-2014 00:15:17 14.4 C 63 %
723 04-06-2014 00:27:17 14.4 C 63 %
724 04-06-2014 00:39:17 14.4 C 63 %
725 04-06-2014 00:51:17 14.4 C 63 %
Sensor: Nr:Datum:Temp:Feuchte:
Aussen-T/F 726 04-06-2014 01:03:17 14.4 C 63 %
727 04-06-2014 01:15:17 14.4 C 63 %
728 04-06-2014 01:27:17 12.1 C 73 %
729 04-06-2014 01:39:17 11.8 C 74 %
730 04-06-2014 01:51:17 11.8 C 74 %
731 04-06-2014 02:03:17 11.8 C 74 %
732 04-06-2014 02:15:17 11.8 C 74 %
733 04-06-2014 02:27:17 11.8 C 74 %
734 04-06-2014 02:39:17 11.8 C 74 %
735 04-06-2014 02:51:17 11.8 C 74 %
736 04-06-2014 03:03:17 11.8 C 74 %
737 04-06-2014 03:15:17 11.8 C 74 %
738 04-06-2014 03:27:17 11.8 C 74 %
739 04-06-2014 03:39:17 11.8 C 74 %
740 04-06-2014 03:51:17 11.8 C 74 %
741 04-06-2014 04:03:17 10.5 C 80 %
742 04-06-2014 04:15:17 10.5 C 80 %
743 04-06-2014 04:27:17 10.5 C 80 %
744 04-06-2014 04:39:17 10.5 C 80 %
745 04-06-2014 04:51:17 10.5 C 80 %
746 04-06-2014 05:03:17 10.5 C 80 %
747 04-06-2014 05:15:17 10.5 C 80 %
748 04-06-2014 05:27:17 11.2 C 81 %
749 04-06-2014 05:39:17 11.2 C 81 %
750 04-06-2014 05:51:17 11.2 C 81 %
Sensor: Nr:Datum:Temp:Feuchte:
Aussen-T/F 751 04-06-2014 06:03:17 11.3 C 81 %
752 04-06-2014 06:15:17 11.6 C 81 %
753 04-06-2014 06:27:17 11.6 C 81 %
754 04-06-2014 06:39:17 12.3 C 79 %
755 04-06-2014 06:51:17 12.6 C 78 %
756 04-06-2014 07:03:17 12.9 C 77 %
757 04-06-2014 07:15:17 13.1 C 75 %
758 04-06-2014 07:27:17 13.1 C 75 %
759 04-06-2014 07:39:17 13.5 C 74 %
760 04-06-2014 07:51:17 14.1 C 72 %
761 04-06-2014 08:03:17 14.2 C 71 %
762 04-06-2014 08:15:17 14.8 C 70 %
763 04-06-2014 08:27:17 15.7 C 66 %
764 04-06-2014 08:39:17 16.2 C 64 %
765 04-06-2014 08:51:17 17.1 C 64 %
766 04-06-2014 09:03:17 20.4 C 50 %
767 04-06-2014 09:15:17 20 C 48 %
768 04-06-2014 09:27:17 21.1 C 47 %
769 04-06-2014 09:39:17 20.3 C 47 %
770 04-06-2014 09:51:17 19.9 C 49 %
771 04-06-2014 10:03:17 19.8 C 50 %
772 04-06-2014 10:15:17 19.7 C 50 %
773 04-06-2014 10:27:17 19.6 C 50 %
774 04-06-2014 10:39:17 20.1 C 50 %
775 04-06-2014 10:51:17 20.3 C 48 %
Sensor: Nr:Datum:Temp:Feuchte:
Aussen-T/F 776 04-06-2014 11:03:17 20.7 C 48 %
777 04-06-2014 11:15:17 20.8 C 48 %
778 04-06-2014 11:27:17 21 C 47 %
779 04-06-2014 11:39:17 21.3 C 47 %
780 04-06-2014 11:51:17 22.1 C 46 %
781 04-06-2014 12:03:17 21.6 C 45 %
782 04-06-2014 12:15:17 20.8 C 49 %
783 04-06-2014 12:27:17 20 C 52 %
784 04-06-2014 12:39:17 19.9 C 48 %
785 04-06-2014 12:51:17 19.4 C 47 %
786 04-06-2014 13:03:17 18.8 C 50 %
787 04-06-2014 13:15:17 19.2 C 53 %
788 04-06-2014 13:27:17 18.6 C 52 %
789 04-06-2014 13:39:17 18.5 C 53 %
790 04-06-2014 13:51:17 18.5 C 57 %
791 04-06-2014 14:03:17 18.4 C 59 %
792 04-06-2014 14:15:17 17.7 C 61 %
793 04-06-2014 14:27:17 17.5 C 63 %
794 04-06-2014 14:39:17 17.2 C 66 %
795 04-06-2014 14:51:17 18 C 68 %
796 04-06-2014 15:03:17 18.5 C 68 %
797 04-06-2014 15:15:17 18.2 C 66 %
798 04-06-2014 15:27:17 17.4 C 69 %
799 04-06-2014 15:39:17 17.2 C 70 %
800 04-06-2014 15:51:17 17.2 C 70 %
Sensor: Nr:Datum:Temp:Feuchte:
Aussen-T/F 801 04-06-2014 16:03:17 17.3 C 74 %
802 04-06-2014 16:15:17 17.3 C 75 %
803 04-06-2014 16:27:17 17.2 C 76 %
804 04-06-2014 16:39:17 16.7 C 78 %
805 04-06-2014 16:51:17 16.8 C 80 %
806 04-06-2014 17:03:17 17 C 81 %
807 04-06-2014 17:15:17 17.2 C 82 %
808 04-06-2014 17:27:17 17 C 82 %
809 04-06-2014 17:39:17 17 C 82 %
810 04-06-2014 17:51:17 16.6 C 83 %
811 04-06-2014 18:03:17 16.5 C 83 %
812 04-06-2014 18:15:17 17.3 C 83 %
813 04-06-2014 18:27:17 18.9 C 82 %
814 04-06-2014 18:39:17 19.7 C 76 %
815 04-06-2014 18:51:17 21.4 C 69 %
816 04-06-2014 19:03:17 21.4 C 69 %
817 04-06-2014 19:15:17 19.9 C 72 %
818 04-06-2014 19:27:17 18.7 C 75 %
819 04-06-2014 19:39:17 19.3 C 75 %
820 04-06-2014 19:51:17 19.3 C 75 %
821 04-06-2014 20:03:17 18.7 C 74 %
822 04-06-2014 20:15:17 18.2 C 73 %
823 04-06-2014 20:27:17 17.9 C 74 %
824 04-06-2014 20:39:17 16.9 C 76 %
825 04-06-2014 20:51:17 16.3 C 78 %
Sensor: Nr:Datum:Temp:Feuchte:
Aussen-T/F 826 04-06-2014 21:03:17 15.9 C 79 %
827 04-06-2014 21:15:17 15.5 C 80 %
828 04-06-2014 21:27:17 15.1 C 81 %
829 04-06-2014 21:39:17 14.8 C 83 %
830 04-06-2014 21:51:17 14.7 C 83 %
831 04-06-2014 22:03:17 14.4 C 84 %
832 04-06-2014 22:15:17 14.3 C 84 %
833 04-06-2014 22:27:17 14.5 C 84 %
834 04-06-2014 22:39:17 14.4 C 85 %
835 04-06-2014 22:51:17 14.3 C 85 %
836 04-06-2014 23:03:17 14.1 C 85 %
837 04-06-2014 23:15:17 13.6 C 86 %
838 04-06-2014 23:27:17 13.4 C 86 %
839 04-06-2014 23:39:17 13.1 C 86 %
840 04-06-2014 23:51:17 12.9 C 87 %
Sensor: Nr:Datum:Temp:Feuchte:
G-T/H 1 29-05-2014 00:03:17 15.6 C 71 %
2 29-05-2014 00:15:17 15.6 C 71 %
3 29-05-2014 00:27:18 15.6 C 71 %
4 29-05-2014 00:39:17 15.6 C 71 %
5 29-05-2014 00:51:17 15.5 C 71 %
6 29-05-2014 01:03:17 15.6 C 71 %
7 29-05-2014 01:15:17 15.5 C 71 %
8 29-05-2014 01:27:17 15.5 C 71 %
9 29-05-2014 01:39:17 15.5 C 71 %
10 29-05-2014 01:51:17 15.5 C 71 %
11 29-05-2014 02:03:17 15.5 C 70 %
12 29-05-2014 02:15:17 15.4 C 70 %
13 29-05-2014 02:27:17 15.5 C 70 %
14 29-05-2014 02:39:17 15.4 C 70 %
15 29-05-2014 02:51:17 15.4 C 70 %
16 29-05-2014 03:03:18 15.4 C 70 %
17 29-05-2014 03:15:17 15.4 C 70 %
18 29-05-2014 03:27:17 15.3 C 70 %
19 29-05-2014 03:39:17 15.3 C 70 %
20 29-05-2014 03:51:17 15.4 C 70 %
21 29-05-2014 04:03:17 15.3 C 70 %
22 29-05-2014 04:15:17 15.3 C 70 %
23 29-05-2014 04:27:17 15.2 C 69 %
24 29-05-2014 04:39:17 15.2 C 69 %
25 29-05-2014 04:51:17 15.2 C 69 %
Sensor: Nr:Datum:Temp:Feuchte:
G-T/H 26 29-05-2014 05:03:17 15.2 C 69 %
27 29-05-2014 05:15:17 15.2 C 69 %
28 29-05-2014 05:27:17 15.1 C 69 %
29 29-05-2014 05:39:17 15.2 C 69 %
30 29-05-2014 05:51:17 15.2 C 69 %
31 29-05-2014 06:03:17 15.1 C 69 %
32 29-05-2014 06:15:17 15.1 C 69 %
33 29-05-2014 06:27:17 15.1 C 69 %
34 29-05-2014 06:39:17 15 C 69 %
35 29-05-2014 06:51:17 15 C 69 %
36 29-05-2014 07:03:17 15 C 69 %
37 29-05-2014 07:15:16 15 C 69 %
38 29-05-2014 07:27:16 15 C 69 %
39 29-05-2014 07:39:17 15 C 69 %
40 29-05-2014 07:51:17 15 C 69 %
41 29-05-2014 08:03:17 14.9 C 70 %
42 29-05-2014 08:15:17 14.9 C 70 %
43 29-05-2014 08:27:17 14.9 C 70 %
44 29-05-2014 08:39:17 14.9 C 70 %
45 29-05-2014 08:51:17 14.9 C 70 %
46 29-05-2014 09:03:17 14.9 C 70 %
47 29-05-2014 09:15:17 14.9 C 70 %
48 29-05-2014 09:27:17 14.9 C 70 %
49 29-05-2014 09:39:17 14.9 C 70 %
50 29-05-2014 09:51:17 14.9 C 70 %
Sensor: Nr:Datum:Temp:Feuchte:
G-T/H 51 29-05-2014 10:03:17 14.9 C 70 %
52 29-05-2014 10:15:17 14.9 C 70 %
53 29-05-2014 10:27:17 14.9 C 70 %
54 29-05-2014 10:39:17 14.8 C 70 %
55 29-05-2014 10:51:17 14.9 C 70 %
56 29-05-2014 11:03:17 14.9 C 70 %
57 29-05-2014 11:15:17 14.9 C 70 %
58 29-05-2014 11:27:17 14.9 C 70 %
59 29-05-2014 11:39:17 14.9 C 70 %
60 29-05-2014 11:51:17 14.9 C 70 %
61 29-05-2014 12:03:17 14.9 C 70 %
62 29-05-2014 12:15:17 14.9 C 70 %
63 29-05-2014 12:27:17 14.9 C 70 %
64 29-05-2014 12:39:17 14.9 C 70 %
65 29-05-2014 12:51:17 14.9 C 70 %
66 29-05-2014 13:03:17 15 C 70 %
67 29-05-2014 13:15:16 15 C 69 %
68 29-05-2014 13:27:16 15 C 69 %
69 29-05-2014 13:39:17 15 C 69 %
70 29-05-2014 13:51:17 15.1 C 69 %
71 29-05-2014 14:03:17 15.1 C 69 %
72 29-05-2014 14:15:17 15.1 C 69 %
73 29-05-2014 14:27:17 15.1 C 69 %
74 29-05-2014 14:39:17 15.1 C 69 %
75 29-05-2014 14:51:17 15.2 C 69 %
Sensor: Nr:Datum:Temp:Feuchte:
G-T/H 76 29-05-2014 15:03:17 15.2 C 69 %
77 29-05-2014 15:15:17 15.2 C 69 %
78 29-05-2014 15:27:17 15.2 C 69 %
79 29-05-2014 15:39:17 15.2 C 69 %
80 29-05-2014 15:51:17 15.2 C 69 %
81 29-05-2014 16:03:17 15.3 C 69 %
82 29-05-2014 16:15:17 15.3 C 69 %
83 29-05-2014 16:27:17 15.3 C 70 %
84 29-05-2014 16:39:17 15.3 C 70 %
85 29-05-2014 16:51:17 15.3 C 70 %
86 29-05-2014 17:03:17 15.3 C 70 %
87 29-05-2014 17:15:17 15.3 C 70 %
88 29-05-2014 17:27:17 15.3 C 70 %
89 29-05-2014 17:39:18 15.4 C 70 %
90 29-05-2014 17:51:17 15.4 C 70 %
91 29-05-2014 18:03:17 15.4 C 70 %
92 29-05-2014 18:15:17 15.4 C 70 %
93 29-05-2014 18:27:17 15.4 C 70 %
94 29-05-2014 18:39:16 15.4 C 70 %
95 29-05-2014 18:51:17 15.4 C 70 %
96 29-05-2014 19:03:17 15.4 C 70 %
97 29-05-2014 19:15:17 15.5 C 70 %
98 29-05-2014 19:27:17 15.4 C 70 %
99 29-05-2014 19:39:17 15.5 C 70 %
100 29-05-2014 19:51:17 15.4 C 70 %
Sensor: Nr:Datum:Temp:Feuchte:
G-T/H 101 29-05-2014 20:03:17 15.4 C 70 %
102 29-05-2014 20:15:17 15.4 C 70 %
103 29-05-2014 20:27:17 15.4 C 70 %
104 29-05-2014 20:39:17 15.4 C 70 %
105 29-05-2014 20:51:17 15.4 C 71 %
106 29-05-2014 21:03:17 15.4 C 71 %
107 29-05-2014 21:15:17 15.4 C 71 %
108 29-05-2014 21:27:17 15.4 C 71 %
109 29-05-2014 21:39:17 15.4 C 71 %
110 29-05-2014 21:51:17 15.4 C 71 %
111 29-05-2014 22:03:17 15.5 C 71 %
112 29-05-2014 22:15:17 15.4 C 71 %
113 29-05-2014 22:27:17 15.4 C 71 %
114 29-05-2014 22:39:17 15.4 C 71 %
115 29-05-2014 22:51:17 15.4 C 71 %
116 29-05-2014 23:03:17 15.4 C 71 %
117 29-05-2014 23:15:17 15.4 C 71 %
118 29-05-2014 23:27:17 15.4 C 71 %
119 29-05-2014 23:39:17 15.4 C 71 %
120 29-05-2014 23:51:17 15.4 C 71 %
121 30-05-2014 00:03:17 15.4 C 71 %
122 30-05-2014 00:15:17 15.3 C 71 %
123 30-05-2014 00:27:17 15.3 C 71 %
124 30-05-2014 00:39:17 15.3 C 71 %
125 30-05-2014 00:51:17 15.3 C 71 %
Sensor: Nr:Datum:Temp:Feuchte:
G-T/H 126 30-05-2014 01:03:17 15.3 C 70 %
127 30-05-2014 01:15:17 15.2 C 70 %
128 30-05-2014 01:27:17 15.3 C 70 %
129 30-05-2014 01:39:17 15.3 C 70 %
130 30-05-2014 01:51:17 15.2 C 70 %
131 30-05-2014 02:03:17 15.2 C 70 %
132 30-05-2014 02:15:17 15.2 C 70 %
133 30-05-2014 02:27:17 15.2 C 70 %
134 30-05-2014 02:39:17 15.2 C 70 %
135 30-05-2014 02:51:17 15.2 C 70 %
136 30-05-2014 03:03:17 15.2 C 70 %
137 30-05-2014 03:15:17 15.1 C 70 %
138 30-05-2014 03:27:17 15.1 C 70 %
139 30-05-2014 03:39:17 15.1 C 70 %
140 30-05-2014 03:51:17 15.1 C 69 %
141 30-05-2014 04:03:17 15.1 C 69 %
142 30-05-2014 04:15:17 15.1 C 69 %
143 30-05-2014 04:27:17 15 C 69 %
144 30-05-2014 04:39:17 15.1 C 69 %
145 30-05-2014 04:51:17 15 C 69 %
146 30-05-2014 05:03:17 15 C 69 %
147 30-05-2014 05:15:17 15 C 69 %
148 30-05-2014 05:27:17 15 C 69 %
149 30-05-2014 05:39:17 15 C 69 %
150 30-05-2014 05:51:17 14.9 C 69 %
Sensor: Nr:Datum:Temp:Feuchte:
G-T/H 151 30-05-2014 06:03:17 14.9 C 69 %
152 30-05-2014 06:15:17 14.9 C 69 %
153 30-05-2014 06:27:17 14.9 C 68 %
154 30-05-2014 06:39:17 14.8 C 67 %
155 30-05-2014 06:51:17 14.8 C 67 %
156 30-05-2014 07:03:17 14.8 C 66 %
157 30-05-2014 07:15:17 14.7 C 66 %
158 30-05-2014 07:27:17 14.7 C 65 %
159 30-05-2014 07:39:17 14.7 C 65 %
160 30-05-2014 07:51:17 14.7 C 64 %
161 30-05-2014 08:03:17 14.7 C 64 %
162 30-05-2014 08:15:17 14.6 C 63 %
163 30-05-2014 08:27:17 14.7 C 63 %
164 30-05-2014 08:39:17 14.7 C 64 %
165 30-05-2014 08:51:17 14.7 C 64 %
166 30-05-2014 09:03:17 14.6 C 64 %
167 30-05-2014 09:15:17 14.5 C 62 %
168 30-05-2014 09:27:17 14.5 C 61 %
169 30-05-2014 09:39:17 14.5 C 60 %
170 30-05-2014 09:51:17 14.4 C 60 %
171 30-05-2014 10:03:17 14.4 C 59 %
172 30-05-2014 10:15:17 14.5 C 60 %
173 30-05-2014 10:27:17 14.5 C 61 %
174 30-05-2014 10:39:17 14.6 C 62 %
175 30-05-2014 10:51:17 14.6 C 63 %
Sensor: Nr:Datum:Temp:Feuchte:
G-T/H 176 30-05-2014 11:03:17 14.6 C 63 %
177 30-05-2014 11:15:17 14.6 C 64 %
178 30-05-2014 11:27:17 14.6 C 64 %
179 30-05-2014 11:39:17 14.6 C 64 %
180 30-05-2014 11:51:17 14.6 C 64 %
181 30-05-2014 12:03:17 14.7 C 65 %
182 30-05-2014 12:15:17 14.7 C 65 %
183 30-05-2014 12:27:17 14.7 C 65 %
184 30-05-2014 12:39:17 14.7 C 65 %
185 30-05-2014 12:51:17 14.7 C 65 %
186 30-05-2014 13:03:17 14.7 C 65 %
187 30-05-2014 13:15:17 14.8 C 65 %
188 30-05-2014 13:27:17 14.8 C 65 %
189 30-05-2014 13:39:17 14.8 C 65 %
190 30-05-2014 13:51:17 14.9 C 66 %
191 30-05-2014 14:03:17 14.9 C 66 %
192 30-05-2014 14:15:17 14.9 C 65 %
193 30-05-2014 14:27:17 15 C 65 %
194 30-05-2014 14:39:17 15 C 65 %
195 30-05-2014 14:51:17 15 C 65 %
196 30-05-2014 15:03:18 15 C 64 %
197 30-05-2014 15:15:17 15 C 64 %
198 30-05-2014 15:27:17 15.1 C 63 %
199 30-05-2014 15:39:17 15.1 C 63 %
200 30-05-2014 15:51:17 15.1 C 63 %
Sensor: Nr:Datum:Temp:Feuchte:
G-T/H 201 30-05-2014 16:03:17 15.1 C 63 %
202 30-05-2014 16:15:17 15.2 C 63 %
203 30-05-2014 16:27:17 15.2 C 63 %
204 30-05-2014 16:39:17 15.2 C 63 %
205 30-05-2014 16:51:17 15.3 C 63 %
206 30-05-2014 17:03:17 15.3 C 63 %
207 30-05-2014 17:15:17 15.3 C 63 %
208 30-05-2014 17:27:17 15.4 C 64 %
209 30-05-2014 17:39:17 15.4 C 64 %
210 30-05-2014 17:51:17 15.4 C 64 %
211 30-05-2014 18:03:17 15.4 C 64 %
212 30-05-2014 18:15:17 15.4 C 64 %
213 30-05-2014 18:27:17 15.4 C 64 %
214 30-05-2014 18:39:17 15.5 C 64 %
215 30-05-2014 18:51:17 15.5 C 64 %
216 30-05-2014 19:03:17 15.6 C 64 %
217 30-05-2014 19:15:17 15.5 C 64 %
218 30-05-2014 19:27:17 15.5 C 64 %
219 30-05-2014 19:39:18 15.6 C 63 %
220 30-05-2014 19:51:17 15.6 C 62 %
221 30-05-2014 20:03:17 15.6 C 61 %
222 30-05-2014 20:15:17 15.6 C 60 %
223 30-05-2014 20:27:17 15.6 C 60 %
224 30-05-2014 20:39:17 15.6 C 60 %
225 30-05-2014 20:51:17 15.6 C 61 %
Sensor: Nr:Datum:Temp:Feuchte:
G-T/H 226 30-05-2014 21:03:16 15.5 C 61 %
227 30-05-2014 21:15:17 15.5 C 62 %
228 30-05-2014 21:27:17 15.5 C 63 %
229 30-05-2014 21:39:17 15.4 C 63 %
230 30-05-2014 21:51:17 15.4 C 63 %
231 30-05-2014 22:03:17 15.3 C 62 %
232 30-05-2014 22:15:17 15.2 C 61 %
233 30-05-2014 22:27:17 15 C 60 %
234 30-05-2014 22:39:17 15 C 59 %
235 30-05-2014 22:51:17 15 C 59 %
236 30-05-2014 23:03:17 15.1 C 59 %
237 30-05-2014 23:15:17 15.2 C 59 %
238 30-05-2014 23:27:17 15.2 C 59 %
239 30-05-2014 23:39:17 15.2 C 59 %
240 30-05-2014 23:51:17 15.2 C 59 %
241 31-05-2014 00:03:17 15.2 C 59 %
242 31-05-2014 00:15:16 15.2 C 59 %
243 31-05-2014 00:27:17 15.2 C 60 %
244 31-05-2014 00:39:17 15.1 C 60 %
245 31-05-2014 00:51:17 15.1 C 60 %
246 31-05-2014 01:03:17 15.1 C 60 %
247 31-05-2014 01:15:17 15.1 C 60 %
248 31-05-2014 01:27:17 15.1 C 60 %
249 31-05-2014 01:39:17 15 C 60 %
250 31-05-2014 01:51:17 15 C 60 %
Sensor: Nr:Datum:Temp:Feuchte:
G-T/H 251 31-05-2014 02:03:17 15 C 60 %
252 31-05-2014 02:15:17 15 C 60 %
253 31-05-2014 02:27:17 15 C 60 %
254 31-05-2014 02:39:17 15 C 60 %
255 31-05-2014 02:51:17 14.9 C 61 %
256 31-05-2014 03:03:17 15 C 60 %
257 31-05-2014 03:15:17 14.9 C 61 %
258 31-05-2014 03:27:17 14.9 C 61 %
259 31-05-2014 03:39:17 14.8 C 61 %
260 31-05-2014 03:51:17 14.8 C 61 %
261 31-05-2014 04:03:17 14.8 C 61 %
262 31-05-2014 04:15:17 14.8 C 61 %
263 31-05-2014 04:27:17 14.7 C 61 %
264 31-05-2014 04:39:17 14.7 C 61 %
265 31-05-2014 04:51:17 14.7 C 61 %
266 31-05-2014 05:03:17 14.7 C 61 %
267 31-05-2014 05:15:17 14.7 C 61 %
268 31-05-2014 05:27:17 14.6 C 61 %
269 31-05-2014 05:39:17 14.6 C 61 %
270 31-05-2014 05:51:17 14.6 C 61 %
271 31-05-2014 06:03:17 14.5 C 61 %
272 31-05-2014 06:15:17 14.5 C 61 %
273 31-05-2014 06:27:17 14.3 C 60 %
274 31-05-2014 06:39:17 14.1 C 60 %
275 31-05-2014 06:51:17 14 C 60 %
Sensor: Nr:Datum:Temp:Feuchte:
G-T/H 276 31-05-2014 07:03:17 14 C 59 %
277 31-05-2014 07:15:17 13.9 C 60 %
278 31-05-2014 07:27:17 14 C 59 %
279 31-05-2014 07:39:17 14.1 C 59 %
280 31-05-2014 07:51:17 14.1 C 59 %
281 31-05-2014 08:03:17 14.1 C 60 %
282 31-05-2014 08:15:17 14.1 C 60 %
283 31-05-2014 08:27:17 14.1 C 60 %
284 31-05-2014 08:39:17 14.1 C 61 %
285 31-05-2014 08:51:17 14.1 C 61 %
286 31-05-2014 09:03:17 14.1 C 61 %
287 31-05-2014 09:15:17 14.1 C 61 %
288 31-05-2014 09:27:17 14.1 C 61 %
289 31-05-2014 09:39:17 14.1 C 62 %
290 31-05-2014 09:51:17 14.1 C 62 %
291 31-05-2014 10:03:17 14.1 C 62 %
292 31-05-2014 10:15:17 14.1 C 62 %
293 31-05-2014 10:27:17 14 C 63 %
294 31-05-2014 10:39:17 14 C 63 %
295 31-05-2014 10:51:17 14.1 C 63 %
296 31-05-2014 11:03:17 14 C 63 %
297 31-05-2014 11:15:17 14.1 C 63 %
298 31-05-2014 11:27:17 14.1 C 63 %
299 31-05-2014 11:39:17 14.1 C 64 %
300 31-05-2014 11:51:17 14.1 C 64 %
Sensor: Nr:Datum:Temp:Feuchte:
G-T/H 301 31-05-2014 12:03:17 14.2 C 64 %
302 31-05-2014 12:15:17 14.2 C 64 %
303 31-05-2014 12:27:17 14.3 C 64 %
304 31-05-2014 12:39:17 14.3 C 64 %
305 31-05-2014 12:51:17 14.3 C 64 %
306 31-05-2014 13:03:17 14.4 C 65 %
307 31-05-2014 13:15:16 14.4 C 65 %
308 31-05-2014 13:27:17 14.4 C 65 %
309 31-05-2014 13:39:17 14.4 C 65 %
310 31-05-2014 13:51:17 14.5 C 66 %
311 31-05-2014 14:03:17 14.5 C 66 %
312 31-05-2014 14:15:17 14.6 C 66 %
313 31-05-2014 14:27:17 14.6 C 66 %
314 31-05-2014 14:39:17 14.7 C 65 %
315 31-05-2014 14:51:17 14.7 C 65 %
316 31-05-2014 15:03:17 14.7 C 65 %
317 31-05-2014 15:15:17 14.7 C 65 %
318 31-05-2014 15:27:17 14.8 C 65 %
319 31-05-2014 15:39:17 14.8 C 66 %
320 31-05-2014 15:51:17 14.8 C 66 %
321 31-05-2014 16:03:17 14.8 C 66 %
322 31-05-2014 16:15:17 14.9 C 66 %
323 31-05-2014 16:27:17 14.9 C 66 %
324 31-05-2014 16:39:17 14.9 C 66 %
325 31-05-2014 16:51:17 15 C 66 %
Sensor: Nr:Datum:Temp:Feuchte:
G-T/H 326 31-05-2014 17:03:17 15 C 66 %
327 31-05-2014 17:15:17 15 C 66 %
328 31-05-2014 17:27:17 15 C 66 %
329 31-05-2014 17:39:17 15.1 C 65 %
330 31-05-2014 17:51:17 15.1 C 65 %
331 31-05-2014 18:03:17 15.2 C 65 %
332 31-05-2014 18:15:17 15.2 C 66 %
333 31-05-2014 18:27:17 15.2 C 66 %
334 31-05-2014 18:39:17 15.3 C 66 %
335 31-05-2014 18:51:17 15.3 C 66 %
336 31-05-2014 19:03:17 15.3 C 66 %
337 31-05-2014 19:15:17 15.4 C 66 %
338 31-05-2014 19:27:17 15.4 C 66 %
339 31-05-2014 19:39:17 15.4 C 66 %
340 31-05-2014 19:51:17 15.4 C 66 %
341 31-05-2014 20:03:17 15.5 C 66 %
342 31-05-2014 20:15:17 15.5 C 65 %
343 31-05-2014 20:27:17 15.5 C 65 %
344 31-05-2014 20:39:17 15.5 C 65 %
345 31-05-2014 20:51:17 15.5 C 66 %
346 31-05-2014 21:03:17 15.5 C 66 %
347 31-05-2014 21:15:17 15.5 C 66 %
348 31-05-2014 21:27:17 15.4 C 66 %
349 31-05-2014 21:39:17 15.4 C 66 %
350 31-05-2014 21:51:17 15.4 C 66 %
Sensor: Nr:Datum:Temp:Feuchte:
G-T/H 351 31-05-2014 22:03:17 15.4 C 66 %
352 31-05-2014 22:15:17 15.4 C 67 %
353 31-05-2014 22:27:17 15.4 C 67 %
354 31-05-2014 22:39:17 15.4 C 67 %
355 31-05-2014 22:51:17 15.4 C 67 %
356 31-05-2014 23:03:17 15.4 C 67 %
357 31-05-2014 23:15:17 15.4 C 67 %
358 31-05-2014 23:27:17 15.4 C 67 %
359 31-05-2014 23:39:17 15.4 C 67 %
360 31-05-2014 23:51:17 15.4 C 67 %
361 01-06-2014 00:03:17 15.4 C 67 %
362 01-06-2014 00:15:17 15.4 C 67 %
363 01-06-2014 00:27:17 15.4 C 67 %
364 01-06-2014 00:39:17 15.4 C 67 %
365 01-06-2014 00:51:17 15.4 C 67 %
366 01-06-2014 01:03:17 15.4 C 67 %
367 01-06-2014 01:15:17 15.4 C 67 %
368 01-06-2014 01:27:17 15.4 C 67 %
369 01-06-2014 01:39:17 15.4 C 67 %
370 01-06-2014 01:51:16 15.4 C 67 %
371 01-06-2014 02:03:17 15.4 C 67 %
372 01-06-2014 02:15:17 15.4 C 67 %
373 01-06-2014 02:27:17 15.4 C 67 %
374 01-06-2014 02:39:18 15.3 C 67 %
375 01-06-2014 02:51:17 15.3 C 67 %
Sensor: Nr:Datum:Temp:Feuchte:
G-T/H 376 01-06-2014 03:03:17 15.3 C 67 %
377 01-06-2014 03:15:17 15.3 C 67 %
378 01-06-2014 03:27:17 15.2 C 66 %
379 01-06-2014 03:39:17 15.2 C 66 %
380 01-06-2014 03:51:17 15.2 C 66 %
381 01-06-2014 04:03:17 15.2 C 66 %
382 01-06-2014 04:15:17 15.2 C 66 %
383 01-06-2014 04:27:17 15.2 C 66 %
384 01-06-2014 04:39:17 15.2 C 66 %
385 01-06-2014 04:51:17 15.2 C 66 %
386 01-06-2014 05:03:17 15.2 C 66 %
387 01-06-2014 05:15:17 15.2 C 66 %
388 01-06-2014 05:27:17 15.2 C 66 %
389 01-06-2014 05:39:17 15.1 C 66 %
390 01-06-2014 05:51:17 15.1 C 66 %
391 01-06-2014 06:03:17 15.1 C 66 %
392 01-06-2014 06:15:17 15.1 C 66 %
393 01-06-2014 06:27:17 15 C 66 %
394 01-06-2014 06:39:17 15 C 66 %
395 01-06-2014 06:51:17 15 C 67 %
396 01-06-2014 07:03:17 15 C 67 %
397 01-06-2014 07:15:17 15 C 67 %
398 01-06-2014 07:27:17 15 C 67 %
399 01-06-2014 07:39:17 15 C 67 %
400 01-06-2014 07:51:17 15 C 67 %
Sensor: Nr:Datum:Temp:Feuchte:
G-T/H 401 01-06-2014 08:03:17 15 C 67 %
402 01-06-2014 08:15:17 15 C 67 %
403 01-06-2014 08:27:17 15 C 67 %
404 01-06-2014 08:39:17 15 C 67 %
405 01-06-2014 08:51:17 15 C 67 %
406 01-06-2014 09:03:17 15 C 68 %
407 01-06-2014 09:15:17 15 C 68 %
408 01-06-2014 09:27:17 15 C 68 %
409 01-06-2014 09:39:17 15 C 68 %
410 01-06-2014 09:51:17 14.9 C 69 %
411 01-06-2014 10:03:17 14.9 C 69 %
412 01-06-2014 10:15:17 14.9 C 69 %
413 01-06-2014 10:27:17 14.9 C 69 %
414 01-06-2014 10:39:17 14.9 C 69 %
415 01-06-2014 10:51:17 14.9 C 69 %
416 01-06-2014 11:03:17 14.9 C 69 %
417 01-06-2014 11:15:16 15 C 68 %
418 01-06-2014 11:27:17 15 C 68 %
419 01-06-2014 11:39:17 15 C 68 %
420 01-06-2014 11:51:17 15 C 68 %
421 01-06-2014 12:03:17 15 C 68 %
422 01-06-2014 12:15:17 15 C 68 %
423 01-06-2014 12:27:17 15 C 68 %
424 01-06-2014 12:39:17 15 C 68 %
425 01-06-2014 12:51:17 15.1 C 68 %
Sensor: Nr:Datum:Temp:Feuchte:
G-T/H 426 01-06-2014 13:03:17 15.1 C 68 %
427 01-06-2014 13:15:17 15.2 C 68 %
428 01-06-2014 13:27:17 15.2 C 68 %
429 01-06-2014 13:39:17 15.2 C 67 %
430 01-06-2014 13:51:17 15.2 C 67 %
431 01-06-2014 14:03:17 15.3 C 67 %
432 01-06-2014 14:15:17 15.3 C 67 %
433 01-06-2014 14:27:17 15.4 C 67 %
434 01-06-2014 14:39:17 15.4 C 67 %
435 01-06-2014 14:51:17 15.4 C 67 %
436 01-06-2014 15:03:17 15.4 C 67 %
437 01-06-2014 15:15:17 15.5 C 67 %
438 01-06-2014 15:27:17 15.6 C 67 %
439 01-06-2014 15:39:17 15.6 C 67 %
440 01-06-2014 15:51:17 15.7 C 66 %
441 01-06-2014 16:03:17 15.7 C 66 %
442 01-06-2014 16:15:17 15.7 C 66 %
443 01-06-2014 16:27:17 15.7 C 66 %
444 01-06-2014 16:39:17 15.8 C 66 %
445 01-06-2014 16:51:17 15.9 C 66 %
446 01-06-2014 17:03:17 15.9 C 65 %
447 01-06-2014 17:15:17 15.9 C 65 %
448 01-06-2014 17:27:17 15.9 C 65 %
449 01-06-2014 17:39:17 16 C 64 %
450 01-06-2014 17:51:17 16 C 64 %
Sensor: Nr:Datum:Temp:Feuchte:
G-T/H 451 01-06-2014 18:03:17 16 C 65 %
452 01-06-2014 18:15:17 16 C 65 %
453 01-06-2014 18:27:17 16 C 65 %
454 01-06-2014 18:39:17 16 C 65 %
455 01-06-2014 18:51:17 16.1 C 65 %
456 01-06-2014 19:03:17 16.1 C 64 %
457 01-06-2014 19:15:17 16.2 C 63 %
458 01-06-2014 19:27:17 16.2 C 62 %
459 01-06-2014 19:39:17 16.3 C 62 %
460 01-06-2014 19:51:17 16.3 C 61 %
461 01-06-2014 20:03:17 16.3 C 61 %
462 01-06-2014 20:15:17 16.2 C 62 %
463 01-06-2014 20:27:17 16.2 C 63 %
464 01-06-2014 20:39:17 16.2 C 64 %
465 01-06-2014 20:51:17 16.2 C 64 %
466 01-06-2014 21:03:17 16.1 C 65 %
467 01-06-2014 21:15:17 16.1 C 65 %
468 01-06-2014 21:27:17 16.1 C 65 %
469 01-06-2014 21:39:17 16.1 C 65 %
470 01-06-2014 21:51:17 16.2 C 66 %
471 01-06-2014 22:03:17 16.1 C 66 %
472 01-06-2014 22:15:17 16.1 C 66 %
473 01-06-2014 22:27:17 16.1 C 66 %
474 01-06-2014 22:39:17 16.1 C 66 %
475 01-06-2014 22:51:16 16.1 C 66 %
Sensor: Nr:Datum:Temp:Feuchte:
G-T/H 476 01-06-2014 23:03:17 16.1 C 66 %
477 01-06-2014 23:15:17 16.1 C 66 %
478 01-06-2014 23:27:17 16.1 C 66 %
479 01-06-2014 23:39:17 16.1 C 66 %
480 01-06-2014 23:51:17 16.1 C 66 %
481 02-06-2014 00:03:17 16 C 67 %
482 02-06-2014 00:15:17 16 C 67 %
483 02-06-2014 00:27:17 16 C 67 %
484 02-06-2014 00:39:17 16 C 67 %
485 02-06-2014 00:51:17 16 C 67 %
486 02-06-2014 01:03:17 16.1 C 67 %
487 02-06-2014 01:15:17 16 C 67 %
488 02-06-2014 01:27:17 16 C 67 %
489 02-06-2014 01:39:17 16 C 67 %
490 02-06-2014 01:51:17 16 C 67 %
491 02-06-2014 02:03:17 16 C 67 %
492 02-06-2014 02:15:17 16 C 67 %
493 02-06-2014 02:27:17 16 C 67 %
494 02-06-2014 02:39:17 15.9 C 67 %
495 02-06-2014 02:51:17 15.9 C 67 %
496 02-06-2014 03:03:17 15.9 C 67 %
497 02-06-2014 03:15:17 15.9 C 66 %
498 02-06-2014 03:27:17 15.9 C 66 %
499 02-06-2014 03:39:17 15.8 C 66 %
500 02-06-2014 03:51:17 15.8 C 65 %
Sensor: Nr:Datum:Temp:Feuchte:
G-T/H 501 02-06-2014 04:03:17 15.8 C 65 %
502 02-06-2014 04:15:17 15.8 C 65 %
503 02-06-2014 04:27:17 15.8 C 65 %
504 02-06-2014 04:39:17 15.7 C 65 %
505 02-06-2014 04:51:17 15.7 C 64 %
506 02-06-2014 05:03:17 15.7 C 64 %
507 02-06-2014 05:15:17 15.7 C 64 %
508 02-06-2014 05:27:17 15.7 C 64 %
509 02-06-2014 05:39:17 15.6 C 64 %
510 02-06-2014 05:51:17 15.6 C 64 %
511 02-06-2014 06:03:17 15.6 C 64 %
512 02-06-2014 06:15:17 15.4 C 63 %
513 02-06-2014 06:27:17 15.2 C 63 %
514 02-06-2014 06:39:17 15.1 C 62 %
515 02-06-2014 06:51:16 15.1 C 62 %
516 02-06-2014 07:03:17 15.2 C 62 %
517 02-06-2014 07:15:17 15.2 C 62 %
518 02-06-2014 07:27:17 15.3 C 62 %
519 02-06-2014 07:39:17 15.3 C 62 %
520 02-06-2014 07:51:17 15.3 C 63 %
521 02-06-2014 08:03:17 15.3 C 63 %
522 02-06-2014 08:15:17 15.3 C 63 %
523 02-06-2014 08:27:17 15.3 C 63 %
524 02-06-2014 08:39:17 15.2 C 64 %
525 02-06-2014 08:51:17 15.2 C 64 %
Sensor: Nr:Datum:Temp:Feuchte:
G-T/H 526 02-06-2014 09:03:17 15.2 C 64 %
527 02-06-2014 09:15:17 15.2 C 65 %
528 02-06-2014 09:27:18 15.3 C 65 %
529 02-06-2014 09:39:17 15.2 C 66 %
530 02-06-2014 09:51:17 15.2 C 66 %
531 02-06-2014 10:03:17 15.2 C 66 %
532 02-06-2014 10:15:17 15.2 C 67 %
533 02-06-2014 10:27:17 15.2 C 67 %
534 02-06-2014 10:39:17 15.2 C 67 %
535 02-06-2014 10:51:17 15.3 C 67 %
536 02-06-2014 11:03:17 15.2 C 67 %
537 02-06-2014 11:15:17 15.3 C 67 %
538 02-06-2014 11:27:17 15.2 C 67 %
539 02-06-2014 11:39:17 15.3 C 67 %
540 02-06-2014 11:51:17 15.3 C 67 %
541 02-06-2014 12:03:17 15.3 C 67 %
542 02-06-2014 12:15:17 15.3 C 67 %
543 02-06-2014 12:27:17 15.3 C 67 %
544 02-06-2014 12:39:17 15.4 C 67 %
545 02-06-2014 12:51:17 15.3 C 67 %
546 02-06-2014 13:03:17 15.4 C 66 %
547 02-06-2014 13:15:17 15.4 C 66 %
548 02-06-2014 13:27:17 15.5 C 66 %
549 02-06-2014 13:39:17 15.5 C 66 %
550 02-06-2014 13:51:17 15.5 C 66 %
Sensor: Nr:Datum:Temp:Feuchte:
G-T/H 551 02-06-2014 14:03:17 15.5 C 66 %
552 02-06-2014 14:15:17 15.6 C 66 %
553 02-06-2014 14:27:17 15.7 C 66 %
554 02-06-2014 14:39:17 15.7 C 65 %
555 02-06-2014 14:51:17 15.7 C 65 %
556 02-06-2014 15:03:17 15.8 C 65 %
557 02-06-2014 15:15:17 15.8 C 65 %
558 02-06-2014 15:27:17 15.8 C 65 %
559 02-06-2014 15:39:17 15.8 C 65 %
560 02-06-2014 15:51:17 15.9 C 65 %
561 02-06-2014 16:03:17 15.9 C 66 %
562 02-06-2014 16:15:17 16 C 65 %
563 02-06-2014 16:27:17 16 C 65 %
564 02-06-2014 16:39:17 16.1 C 65 %
565 02-06-2014 16:51:17 16 C 65 %
566 02-06-2014 17:03:17 16.1 C 65 %
567 02-06-2014 17:15:17 16.1 C 65 %
568 02-06-2014 17:27:18 16.2 C 65 %
569 02-06-2014 17:39:18 16.2 C 65 %
570 02-06-2014 17:51:17 16.2 C 64 %
571 02-06-2014 18:03:17 16.3 C 64 %
572 02-06-2014 18:15:17 16.3 C 64 %
573 02-06-2014 18:27:17 16.3 C 64 %
574 02-06-2014 18:39:17 16.4 C 64 %
575 02-06-2014 18:51:17 16.4 C 64 %
Sensor: Nr:Datum:Temp:Feuchte:
G-T/H 576 02-06-2014 19:03:17 16.4 C 64 %
577 02-06-2014 19:15:17 16.5 C 64 %
578 02-06-2014 19:27:17 16.5 C 64 %
579 02-06-2014 19:39:17 16.6 C 64 %
580 02-06-2014 19:51:17 16.6 C 63 %
581 02-06-2014 20:03:17 16.6 C 63 %
582 02-06-2014 20:15:17 16.7 C 63 %
583 02-06-2014 20:27:17 16.7 C 62 %
584 02-06-2014 20:39:17 16.7 C 61 %
585 02-06-2014 20:51:17 16.7 C 61 %
586 02-06-2014 21:03:17 16.6 C 61 %
587 02-06-2014 21:15:17 16.6 C 62 %
588 02-06-2014 21:27:17 16.5 C 63 %
589 02-06-2014 21:39:17 16.6 C 63 %
590 02-06-2014 21:51:17 16.5 C 63 %
591 02-06-2014 22:03:17 16.5 C 64 %
592 02-06-2014 22:15:17 16.5 C 64 %
593 02-06-2014 22:27:17 16.5 C 64 %
594 02-06-2014 22:39:17 16.5 C 65 %
595 02-06-2014 22:51:17 16.5 C 65 %
596 02-06-2014 23:03:17 16.4 C 65 %
597 02-06-2014 23:15:17 16.5 C 65 %
598 02-06-2014 23:27:17 16.4 C 65 %
599 02-06-2014 23:39:17 16.4 C 65 %
600 02-06-2014 23:51:17 16.4 C 66 %
Sensor: Nr:Datum:Temp:Feuchte:
G-T/H 601 03-06-2014 00:03:18 16.4 C 66 %
602 03-06-2014 00:15:17 16.4 C 66 %
603 03-06-2014 00:27:18 16.4 C 66 %
604 03-06-2014 00:39:17 16.4 C 66 %
605 03-06-2014 00:51:17 16.4 C 66 %
606 03-06-2014 01:03:17 16.4 C 66 %
607 03-06-2014 01:15:17 16.4 C 66 %
608 03-06-2014 01:27:17 16.4 C 66 %
609 03-06-2014 01:39:17 16.4 C 66 %
610 03-06-2014 01:51:17 16.3 C 66 %
611 03-06-2014 02:03:17 16.3 C 66 %
612 03-06-2014 02:15:17 16.3 C 67 %
613 03-06-2014 02:27:17 16.3 C 67 %
614 03-06-2014 02:39:17 16.2 C 67 %
615 03-06-2014 02:51:17 16.2 C 67 %
616 03-06-2014 03:03:17 16.2 C 67 %
617 03-06-2014 03:15:16 16.2 C 67 %
618 03-06-2014 03:27:16 16.2 C 66 %
619 03-06-2014 03:39:17 16.2 C 66 %
620 03-06-2014 03:51:17 16.2 C 66 %
621 03-06-2014 04:03:17 16.2 C 66 %
622 03-06-2014 04:15:17 16.1 C 66 %
623 03-06-2014 04:27:17 16.1 C 66 %
624 03-06-2014 04:39:17 16.1 C 66 %
625 03-06-2014 04:51:17 16.1 C 65 %
Sensor: Nr:Datum:Temp:Feuchte:
G-T/H 626 03-06-2014 05:03:17 16 C 65 %
627 03-06-2014 05:15:16 16.1 C 65 %
628 03-06-2014 05:27:17 16 C 65 %
629 03-06-2014 05:39:17 16 C 65 %
630 03-06-2014 05:51:17 16 C 64 %
631 03-06-2014 06:03:17 16 C 64 %
632 03-06-2014 06:15:17 15.9 C 65 %
633 03-06-2014 06:27:17 15.9 C 65 %
634 03-06-2014 06:39:17 15.9 C 66 %
635 03-06-2014 06:51:17 15.9 C 66 %
636 03-06-2014 07:03:17 15.9 C 66 %
637 03-06-2014 07:15:17 15.9 C 66 %
638 03-06-2014 07:27:17 15.8 C 66 %
639 03-06-2014 07:39:17 15.8 C 67 %
640 03-06-2014 07:51:17 15.8 C 67 %
641 03-06-2014 08:03:17 15.8 C 67 %
642 03-06-2014 08:15:17 15.8 C 68 %
643 03-06-2014 08:27:17 15.8 C 68 %
644 03-06-2014 08:39:17 15.8 C 68 %
645 03-06-2014 08:51:17 15.7 C 68 %
646 03-06-2014 09:03:17 15.7 C 68 %
647 03-06-2014 09:15:17 15.7 C 68 %
648 03-06-2014 09:27:17 15.7 C 68 %
649 03-06-2014 09:39:17 15.7 C 68 %
650 03-06-2014 09:51:17 15.7 C 69 %
Sensor: Nr:Datum:Temp:Feuchte:
G-T/H 651 03-06-2014 10:03:17 15.7 C 69 %
652 03-06-2014 10:15:17 15.7 C 69 %
653 03-06-2014 10:27:17 15.7 C 69 %
654 03-06-2014 10:39:17 15.7 C 69 %
655 03-06-2014 10:51:16 15.7 C 68 %
656 03-06-2014 11:03:17 15.8 C 68 %
657 03-06-2014 11:15:17 15.7 C 68 %
658 03-06-2014 11:27:17 15.7 C 68 %
659 03-06-2014 11:39:17 15.7 C 68 %
660 03-06-2014 11:51:17 15.7 C 68 %
661 03-06-2014 12:03:17 15.8 C 68 %
662 03-06-2014 12:15:17 15.7 C 68 %
663 03-06-2014 12:27:17 15.8 C 68 %
664 03-06-2014 12:39:17 15.8 C 68 %
665 03-06-2014 12:51:17 15.8 C 68 %
666 03-06-2014 13:03:17 15.8 C 68 %
667 03-06-2014 13:15:17 15.8 C 68 %
668 03-06-2014 13:27:17 15.8 C 68 %
669 03-06-2014 13:39:17 15.9 C 68 %
670 03-06-2014 13:51:17 15.9 C 68 %
671 03-06-2014 14:03:17 16 C 66 %
672 03-06-2014 14:15:17 16.1 C 65 %
673 03-06-2014 14:27:17 16.1 C 64 %
674 03-06-2014 14:39:17 16.1 C 64 %
675 03-06-2014 14:51:17 16.1 C 64 %
Sensor: Nr:Datum:Temp:Feuchte:
G-T/H 676 03-06-2014 15:03:17 16.1 C 64 %
677 03-06-2014 15:15:17 16.1 C 64 %
678 03-06-2014 15:27:17 16.2 C 64 %
679 03-06-2014 15:39:17 16.2 C 65 %
680 03-06-2014 15:51:17 16.2 C 65 %
681 03-06-2014 16:03:18 16.2 C 65 %
682 03-06-2014 16:15:17 16.2 C 65 %
683 03-06-2014 16:27:17 16.3 C 65 %
684 03-06-2014 16:39:17 16.3 C 65 %
685 03-06-2014 16:51:17 16.3 C 65 %
686 03-06-2014 17:03:17 16.4 C 65 %
687 03-06-2014 17:15:17 16.4 C 65 %
688 03-06-2014 17:27:17 16.4 C 65 %
689 03-06-2014 17:39:18 16.4 C 66 %
690 03-06-2014 17:51:17 16.4 C 66 %
691 03-06-2014 18:03:17 16.5 C 66 %
692 03-06-2014 18:15:17 16.5 C 66 %
693 03-06-2014 18:27:17 16.5 C 66 %
694 03-06-2014 18:39:17 16.5 C 66 %
695 03-06-2014 18:51:17 16.6 C 66 %
696 03-06-2014 19:03:18 16.6 C 66 %
697 03-06-2014 19:15:17 16.6 C 66 %
698 03-06-2014 19:27:17 16.7 C 66 %
699 03-06-2014 19:39:17 16.7 C 66 %
700 03-06-2014 19:51:17 16.6 C 66 %
Sensor: Nr:Datum:Temp:Feuchte:
G-T/H 701 03-06-2014 20:03:17 16.6 C 66 %
702 03-06-2014 20:15:17 16.7 C 66 %
703 03-06-2014 20:27:17 16.7 C 66 %
704 03-06-2014 20:39:17 16.7 C 67 %
705 03-06-2014 20:51:17 16.7 C 67 %
706 03-06-2014 21:03:17 16.7 C 67 %
707 03-06-2014 21:15:17 16.7 C 67 %
708 03-06-2014 21:27:17 16.6 C 67 %
709 03-06-2014 21:39:17 16.6 C 67 %
710 03-06-2014 21:51:17 16.6 C 67 %
711 03-06-2014 22:03:17 16.6 C 67 %
712 03-06-2014 22:15:17 16.6 C 67 %
713 03-06-2014 22:27:17 16.6 C 67 %
714 03-06-2014 22:39:17 16.6 C 67 %
715 03-06-2014 22:51:17 16.6 C 68 %
716 03-06-2014 23:03:17 16.6 C 68 %
717 03-06-2014 23:15:17 16.6 C 68 %
718 03-06-2014 23:27:17 16.6 C 68 %
719 03-06-2014 23:39:17 16.5 C 68 %
720 03-06-2014 23:51:17 16.6 C 68 %
721 04-06-2014 00:03:17 16.5 C 68 %
722 04-06-2014 00:15:17 16.5 C 68 %
723 04-06-2014 00:27:17 16.5 C 68 %
724 04-06-2014 00:39:17 16.5 C 68 %
725 04-06-2014 00:51:17 16.5 C 68 %
Sensor: Nr:Datum:Temp:Feuchte:
G-T/H 726 04-06-2014 01:03:17 16.4 C 68 %
727 04-06-2014 01:15:17 16.4 C 68 %
728 04-06-2014 01:27:17 16.4 C 68 %
729 04-06-2014 01:39:17 16.4 C 68 %
730 04-06-2014 01:51:17 16.4 C 68 %
731 04-06-2014 02:03:17 16.4 C 68 %
732 04-06-2014 02:15:17 16.4 C 68 %
733 04-06-2014 02:27:17 16.4 C 68 %
734 04-06-2014 02:39:17 16.3 C 68 %
735 04-06-2014 02:51:17 16.3 C 68 %
736 04-06-2014 03:03:17 16.3 C 68 %
737 04-06-2014 03:15:17 16.3 C 68 %
738 04-06-2014 03:27:17 16.2 C 68 %
739 04-06-2014 03:39:17 16.2 C 68 %
740 04-06-2014 03:51:17 16.2 C 68 %
741 04-06-2014 04:03:17 16.2 C 68 %
742 04-06-2014 04:15:17 16.2 C 67 %
743 04-06-2014 04:27:17 16.2 C 67 %
744 04-06-2014 04:39:17 16.2 C 67 %
745 04-06-2014 04:51:17 16.1 C 67 %
746 04-06-2014 05:03:17 16.1 C 67 %
747 04-06-2014 05:15:17 16.1 C 67 %
748 04-06-2014 05:27:17 16.1 C 67 %
749 04-06-2014 05:39:17 16 C 67 %
750 04-06-2014 05:51:17 16.1 C 67 %
Sensor: Nr:Datum:Temp:Feuchte:
G-T/H 751 04-06-2014 06:03:17 16 C 67 %
752 04-06-2014 06:15:17 16 C 68 %
753 04-06-2014 06:27:17 16 C 68 %
754 04-06-2014 06:39:17 16 C 68 %
755 04-06-2014 06:51:17 16 C 68 %
756 04-06-2014 07:03:17 16 C 68 %
757 04-06-2014 07:15:17 16 C 68 %
758 04-06-2014 07:27:17 15.9 C 69 %
759 04-06-2014 07:39:17 15.9 C 70 %
760 04-06-2014 07:51:17 15.9 C 70 %
761 04-06-2014 08:03:17 15.9 C 70 %
762 04-06-2014 08:15:17 15.9 C 70 %
763 04-06-2014 08:27:17 15.9 C 70 %
764 04-06-2014 08:39:17 15.9 C 70 %
765 04-06-2014 08:51:17 15.9 C 70 %
766 04-06-2014 09:03:17 15.9 C 69 %
767 04-06-2014 09:15:17 15.9 C 69 %
768 04-06-2014 09:27:17 15.9 C 69 %
769 04-06-2014 09:39:17 15.9 C 69 %
770 04-06-2014 09:51:17 15.9 C 69 %
771 04-06-2014 10:03:17 15.9 C 68 %
772 04-06-2014 10:15:17 15.9 C 68 %
773 04-06-2014 10:27:17 16 C 67 %
774 04-06-2014 10:39:17 16 C 67 %
775 04-06-2014 10:51:17 16 C 67 %
Sensor: Nr:Datum:Temp:Feuchte:
G-T/H 776 04-06-2014 11:03:17 16 C 67 %
777 04-06-2014 11:15:17 16 C 67 %
778 04-06-2014 11:27:17 16 C 67 %
779 04-06-2014 11:39:17 16 C 67 %
780 04-06-2014 11:51:17 16 C 67 %
781 04-06-2014 12:03:17 16 C 67 %
782 04-06-2014 12:15:17 16.1 C 67 %
783 04-06-2014 12:27:17 16 C 67 %
784 04-06-2014 12:39:17 16 C 67 %
785 04-06-2014 12:51:17 16 C 67 %
786 04-06-2014 13:03:17 16 C 67 %
787 04-06-2014 13:15:17 16.1 C 67 %
788 04-06-2014 13:27:17 16 C 67 %
789 04-06-2014 13:39:17 16.1 C 67 %
790 04-06-2014 13:51:17 16.1 C 67 %
791 04-06-2014 14:03:17 16.1 C 67 %
792 04-06-2014 14:15:17 16.1 C 68 %
793 04-06-2014 14:27:17 16.1 C 68 %
794 04-06-2014 14:39:17 16.1 C 68 %
795 04-06-2014 14:51:17 16.1 C 68 %
796 04-06-2014 15:03:17 16.2 C 68 %
797 04-06-2014 15:15:17 16.2 C 68 %
798 04-06-2014 15:27:17 16.2 C 68 %
799 04-06-2014 15:39:17 16.2 C 68 %
800 04-06-2014 15:51:17 16.2 C 68 %
Sensor: Nr:Datum:Temp:Feuchte:
G-T/H 801 04-06-2014 16:03:17 16.2 C 68 %
802 04-06-2014 16:15:17 16.2 C 68 %
803 04-06-2014 16:27:17 16.2 C 68 %
804 04-06-2014 16:39:17 16.2 C 68 %
805 04-06-2014 16:51:17 16.2 C 69 %
806 04-06-2014 17:03:17 16.2 C 69 %
807 04-06-2014 17:15:17 16.2 C 69 %
808 04-06-2014 17:27:17 16.2 C 69 %
809 04-06-2014 17:39:17 16.2 C 69 %
810 04-06-2014 17:51:17 16.2 C 69 %
811 04-06-2014 18:03:17 16.2 C 69 %
812 04-06-2014 18:15:17 16.2 C 69 %
813 04-06-2014 18:27:17 16.2 C 69 %
814 04-06-2014 18:39:17 16.3 C 69 %
815 04-06-2014 18:51:17 16.3 C 69 %
816 04-06-2014 19:03:17 16.3 C 69 %
817 04-06-2014 19:15:17 16.3 C 69 %
818 04-06-2014 19:27:17 16.3 C 69 %
819 04-06-2014 19:39:17 16.3 C 69 %
820 04-06-2014 19:51:17 16.4 C 69 %
821 04-06-2014 20:03:17 16.4 C 69 %
822 04-06-2014 20:15:17 16.4 C 69 %
823 04-06-2014 20:27:17 16.4 C 69 %
824 04-06-2014 20:39:17 16.4 C 69 %
825 04-06-2014 20:51:17 16.4 C 69 %
Sensor: Nr:Datum:Temp:Feuchte:
G-T/H 826 04-06-2014 21:03:17 16.3 C 69 %
827 04-06-2014 21:15:17 16.3 C 69 %
828 04-06-2014 21:27:17 16.3 C 69 %
829 04-06-2014 21:39:17 16.3 C 69 %
830 04-06-2014 21:51:17 16.3 C 69 %
831 04-06-2014 22:03:17 16.2 C 69 %
832 04-06-2014 22:15:17 16.2 C 69 %
833 04-06-2014 22:27:17 16.3 C 70 %
834 04-06-2014 22:39:17 16.2 C 70 %
835 04-06-2014 22:51:17 16.2 C 70 %
836 04-06-2014 23:03:17 16.2 C 70 %
837 04-06-2014 23:15:17 16.2 C 70 %
838 04-06-2014 23:27:17 16.2 C 70 %
839 04-06-2014 23:39:17 16.2 C 70 %
840 04-06-2014 23:51:17 16.2 C 70 %

Legende:
   Min
   Max


Maximal/Minimal-Werte vom 29.05.2014 - 04.06.2014

Sensor Min Max Avg
Temp
(Aussen-T/F)
5.5 °C
31-05-2014  05:39:17
34.4 °C
02-06-2014  17:39:18
15.55 °C
Feuchte
(Aussen-T/F)
20 %
31-05-2014  17:15:17
90 %
29-05-2014  06:03:17
58.31 %
Temp
(G-T/H)
13.9 °C
31-05-2014  07:15:17
16.7 °C
02-06-2014  20:15:17
15.53 °C
Feuchte
(G-T/H)
59 %
30-05-2014  10:03:17
71 %
29-05-2014  00:03:17
66.31 %

Die Daten stammen von einer Davis Vantage Pro 2 Wetter-Station und werden unter Linux mit der Software wview2wettercgi und aufbereitet. Alle Angaben erfolgen ohne Gewähr für ihre Vollständigkeit oder Richtigkeit.
Kontakt: Rainer Krienke krienke@uni-koblenz.de . Meine Webseiten an der Uni Koblenz oder privat.
Version: $Revision: 0.78 $